
<gpx xmlns="http://www.topografix.com/GPX/1/1" xmlns:gpxx="http://www.garmin.com/xmlschemas/GpxExtensions/v3" xmlns:xsi="http://www.w3.org/2001/XMLSchema-instance" version="1.1" creator="Adze - https://getadze.com/" xsi:schemaLocation="http://www.topografix.com/GPX/1/1 http://www.topografix.com/GPX/1/1/gpx.xsd http://www.garmin.com/xmlschemas/GpxExtensions/v3 http://www8.garmin.com/xmlschemas/GpxExtensionsv3.xsd">
    <metadata>
        <name>Untitled Document</name>
        <link href="http://www.garmin.com"></link>
        <time>2018-03-05T07:09:19.726Z</time>
    </metadata>
    <wpt lon="101.405813" lat="14.218043">
        <name>Khao Yai Grand View</name>
    </wpt>
    <trk>
        <name>May 2005 - Sunday</name>
        <extensions>
            <gpxx:TrackExtension>
                <gpxx:DisplayColor>Black</gpxx:DisplayColor>
            </gpxx:TrackExtension>
        </extensions>
        <trkseg>
            <trkpt lon="101.406542" lat="14.216940">
                <ele>75.600830</ele>
                <time>2005-09-24T22:29:32Z</time>
            </trkpt>
            <trkpt lon="101.406545" lat="14.216899">
                <ele>71.755493</ele>
                <time>2005-09-24T22:29:42Z</time>
            </trkpt>
            <trkpt lon="101.406577" lat="14.216876">
                <ele>68.390869</ele>
                <time>2005-09-24T22:29:45Z</time>
            </trkpt>
            <trkpt lon="101.406578" lat="14.216860">
                <ele>64.065063</ele>
                <time>2005-09-24T22:29:48Z</time>
            </trkpt>
            <trkpt lon="101.406603" lat="14.216841">
                <ele>60.700317</ele>
                <time>2005-09-24T22:29:52Z</time>
            </trkpt>
            <trkpt lon="101.406619" lat="14.216837">
                <ele>58.777710</ele>
                <time>2005-09-24T22:29:53Z</time>
            </trkpt>
            <trkpt lon="101.406770" lat="14.216827">
                <ele>53.490479</ele>
                <time>2005-09-24T22:29:58Z</time>
            </trkpt>
            <trkpt lon="101.406912" lat="14.216841">
                <ele>49.645264</ele>
                <time>2005-09-24T22:30:03Z</time>
            </trkpt>
            <trkpt lon="101.406937" lat="14.216844">
                <ele>49.645264</ele>
                <time>2005-09-24T22:30:04Z</time>
            </trkpt>
            <trkpt lon="101.407045" lat="14.216894">
                <ele>46.761230</ele>
                <time>2005-09-24T22:30:08Z</time>
            </trkpt>
            <trkpt lon="101.407219" lat="14.216990">
                <ele>43.396606</ele>
                <time>2005-09-24T22:30:14Z</time>
            </trkpt>
            <trkpt lon="101.407272" lat="14.217027">
                <ele>42.435425</ele>
                <time>2005-09-24T22:30:16Z</time>
            </trkpt>
            <trkpt lon="101.407403" lat="14.217124">
                <ele>40.512817</ele>
                <time>2005-09-24T22:30:21Z</time>
            </trkpt>
            <trkpt lon="101.407496" lat="14.217231">
                <ele>39.070679</ele>
                <time>2005-09-24T22:30:25Z</time>
            </trkpt>
            <trkpt lon="101.407745" lat="14.217629">
                <ele>36.186768</ele>
                <time>2005-09-24T22:30:38Z</time>
            </trkpt>
            <trkpt lon="101.407745" lat="14.217982">
                <ele>35.225464</ele>
                <time>2005-09-24T22:30:47Z</time>
            </trkpt>
            <trkpt lon="101.407627" lat="14.218206">
                <ele>33.783447</ele>
                <time>2005-09-24T22:30:54Z</time>
            </trkpt>
            <trkpt lon="101.407282" lat="14.218625">
                <ele>34.264160</ele>
                <time>2005-09-24T22:31:07Z</time>
            </trkpt>
            <trkpt lon="101.406948" lat="14.218812">
                <ele>34.264160</ele>
                <time>2005-09-24T22:31:17Z</time>
            </trkpt>
            <trkpt lon="101.406692" lat="14.218879">
                <ele>33.783447</ele>
                <time>2005-09-24T22:31:25Z</time>
            </trkpt>
            <trkpt lon="101.406311" lat="14.218980">
                <ele>32.822266</ele>
                <time>2005-09-24T22:31:37Z</time>
            </trkpt>
            <trkpt lon="101.406198" lat="14.219033">
                <ele>32.341553</ele>
                <time>2005-09-24T22:31:42Z</time>
            </trkpt>
            <trkpt lon="101.406243" lat="14.219110">
                <ele>33.302856</ele>
                <time>2005-09-24T22:31:46Z</time>
            </trkpt>
            <trkpt lon="101.406425" lat="14.219428">
                <ele>32.822266</ele>
                <time>2005-09-24T22:31:58Z</time>
            </trkpt>
            <trkpt lon="101.406684" lat="14.219852">
                <ele>32.822266</ele>
                <time>2005-09-24T22:32:13Z</time>
            </trkpt>
            <trkpt lon="101.406927" lat="14.220302">
                <ele>33.302856</ele>
                <time>2005-09-24T22:32:25Z</time>
            </trkpt>
            <trkpt lon="101.407164" lat="14.220499">
                <ele>33.783447</ele>
                <time>2005-09-24T22:32:33Z</time>
            </trkpt>
            <trkpt lon="101.407449" lat="14.220747">
                <ele>33.302856</ele>
                <time>2005-09-24T22:32:42Z</time>
            </trkpt>
            <trkpt lon="101.407679" lat="14.220809">
                <ele>33.783447</ele>
                <time>2005-09-24T22:32:48Z</time>
            </trkpt>
            <trkpt lon="101.407924" lat="14.220696">
                <ele>34.264160</ele>
                <time>2005-09-24T22:32:55Z</time>
            </trkpt>
            <trkpt lon="101.408269" lat="14.220487">
                <ele>34.744873</ele>
                <time>2005-09-24T22:33:06Z</time>
            </trkpt>
            <trkpt lon="101.408446" lat="14.220290">
                <ele>35.706055</ele>
                <time>2005-09-24T22:33:15Z</time>
            </trkpt>
            <trkpt lon="101.408488" lat="14.220115">
                <ele>35.225464</ele>
                <time>2005-09-24T22:33:24Z</time>
            </trkpt>
            <trkpt lon="101.408639" lat="14.220008">
                <ele>35.706055</ele>
                <time>2005-09-24T22:33:31Z</time>
            </trkpt>
            <trkpt lon="101.409067" lat="14.219935">
                <ele>36.667480</ele>
                <time>2005-09-24T22:33:44Z</time>
            </trkpt>
            <trkpt lon="101.409528" lat="14.219927">
                <ele>36.667480</ele>
                <time>2005-09-24T22:33:58Z</time>
            </trkpt>
            <trkpt lon="101.409767" lat="14.220091">
                <ele>37.148071</ele>
                <time>2005-09-24T22:34:08Z</time>
            </trkpt>
            <trkpt lon="101.409825" lat="14.220163">
                <ele>37.628662</ele>
                <time>2005-09-24T22:34:14Z</time>
            </trkpt>
            <trkpt lon="101.409834" lat="14.220198">
                <ele>38.109375</ele>
                <time>2005-09-24T22:34:22Z</time>
            </trkpt>
            <trkpt lon="101.409871" lat="14.220243">
                <ele>38.109375</ele>
                <time>2005-09-24T22:34:30Z</time>
            </trkpt>
            <trkpt lon="101.409982" lat="14.220318">
                <ele>38.590088</ele>
                <time>2005-09-24T22:34:41Z</time>
            </trkpt>
            <trkpt lon="101.410195" lat="14.220387">
                <ele>38.109375</ele>
                <time>2005-09-24T22:34:54Z</time>
            </trkpt>
            <trkpt lon="101.410391" lat="14.220451">
                <ele>36.667480</ele>
                <time>2005-09-24T22:35:05Z</time>
            </trkpt>
            <trkpt lon="101.410487" lat="14.220578">
                <ele>37.628662</ele>
                <time>2005-09-24T22:35:13Z</time>
            </trkpt>
            <trkpt lon="101.410500" lat="14.220612">
                <ele>37.628662</ele>
                <time>2005-09-24T22:35:19Z</time>
            </trkpt>
            <trkpt lon="101.410505" lat="14.220638">
                <ele>38.109375</ele>
                <time>2005-09-24T22:35:25Z</time>
            </trkpt>
            <trkpt lon="101.410518" lat="14.220670">
                <ele>37.148071</ele>
                <time>2005-09-24T22:35:32Z</time>
            </trkpt>
            <trkpt lon="101.410531" lat="14.220709">
                <ele>37.148071</ele>
                <time>2005-09-24T22:36:32Z</time>
            </trkpt>
            <trkpt lon="101.410528" lat="14.220713">
                <ele>38.590088</ele>
                <time>2005-09-24T22:38:26Z</time>
            </trkpt>
            <trkpt lon="101.410522" lat="14.220828">
                <ele>38.590088</ele>
                <time>2005-09-24T22:38:32Z</time>
            </trkpt>
            <trkpt lon="101.410495" lat="14.221085">
                <ele>38.109375</ele>
                <time>2005-09-24T22:38:41Z</time>
            </trkpt>
            <trkpt lon="101.410442" lat="14.221414">
                <ele>38.109375</ele>
                <time>2005-09-24T22:38:52Z</time>
            </trkpt>
            <trkpt lon="101.410419" lat="14.221605">
                <ele>38.590088</ele>
                <time>2005-09-24T22:39:00Z</time>
            </trkpt>
            <trkpt lon="101.410472" lat="14.221792">
                <ele>38.590088</ele>
                <time>2005-09-24T22:39:07Z</time>
            </trkpt>
            <trkpt lon="101.410719" lat="14.221996">
                <ele>39.551270</ele>
                <time>2005-09-24T22:39:18Z</time>
            </trkpt>
            <trkpt lon="101.410958" lat="14.222124">
                <ele>39.551270</ele>
                <time>2005-09-24T22:39:28Z</time>
            </trkpt>
            <trkpt lon="101.411101" lat="14.222169">
                <ele>40.512817</ele>
                <time>2005-09-24T22:39:35Z</time>
            </trkpt>
            <trkpt lon="101.411367" lat="14.222217">
                <ele>40.512817</ele>
                <time>2005-09-24T22:39:45Z</time>
            </trkpt>
            <trkpt lon="101.411705" lat="14.222264">
                <ele>40.993408</ele>
                <time>2005-09-24T22:39:56Z</time>
            </trkpt>
            <trkpt lon="101.411987" lat="14.222295">
                <ele>41.473999</ele>
                <time>2005-09-24T22:40:06Z</time>
            </trkpt>
            <trkpt lon="101.412128" lat="14.222307">
                <ele>41.954712</ele>
                <time>2005-09-24T22:40:13Z</time>
            </trkpt>
            <trkpt lon="101.412406" lat="14.222355">
                <ele>42.435425</ele>
                <time>2005-09-24T22:40:24Z</time>
            </trkpt>
            <trkpt lon="101.412728" lat="14.222389">
                <ele>42.916016</ele>
                <time>2005-09-24T22:40:35Z</time>
            </trkpt>
            <trkpt lon="101.413017" lat="14.222443">
                <ele>43.877319</ele>
                <time>2005-09-24T22:40:44Z</time>
            </trkpt>
            <trkpt lon="101.413453" lat="14.222537">
                <ele>43.877319</ele>
                <time>2005-09-24T22:40:56Z</time>
            </trkpt>
            <trkpt lon="101.413823" lat="14.222610">
                <ele>44.838623</ele>
                <time>2005-09-24T22:41:06Z</time>
            </trkpt>
            <trkpt lon="101.414067" lat="14.222650">
                <ele>44.358032</ele>
                <time>2005-09-24T22:41:13Z</time>
            </trkpt>
            <trkpt lon="101.414382" lat="14.222682">
                <ele>44.838623</ele>
                <time>2005-09-24T22:41:22Z</time>
            </trkpt>
            <trkpt lon="101.414512" lat="14.222569">
                <ele>45.799927</ele>
                <time>2005-09-24T22:41:27Z</time>
            </trkpt>
            <trkpt lon="101.414592" lat="14.222302">
                <ele>45.799927</ele>
                <time>2005-09-24T22:41:35Z</time>
            </trkpt>
            <trkpt lon="101.414653" lat="14.222175">
                <ele>45.319214</ele>
                <time>2005-09-24T22:41:39Z</time>
            </trkpt>
            <trkpt lon="101.414850" lat="14.222153">
                <ele>44.358032</ele>
                <time>2005-09-24T22:41:44Z</time>
            </trkpt>
            <trkpt lon="101.415004" lat="14.222103">
                <ele>44.358032</ele>
                <time>2005-09-24T22:41:48Z</time>
            </trkpt>
            <trkpt lon="101.415099" lat="14.222024">
                <ele>44.358032</ele>
                <time>2005-09-24T22:41:51Z</time>
            </trkpt>
            <trkpt lon="101.415262" lat="14.221739">
                <ele>43.877319</ele>
                <time>2005-09-24T22:41:59Z</time>
            </trkpt>
            <trkpt lon="101.415469" lat="14.221460">
                <ele>43.396606</ele>
                <time>2005-09-24T22:42:07Z</time>
            </trkpt>
            <trkpt lon="101.415687" lat="14.221133">
                <ele>45.799927</ele>
                <time>2005-09-24T22:42:16Z</time>
            </trkpt>
            <trkpt lon="101.415738" lat="14.220862">
                <ele>47.241821</ele>
                <time>2005-09-24T22:42:23Z</time>
            </trkpt>
            <trkpt lon="101.415836" lat="14.220482">
                <ele>48.683960</ele>
                <time>2005-09-24T22:42:33Z</time>
            </trkpt>
            <trkpt lon="101.415952" lat="14.220226">
                <ele>50.125977</ele>
                <time>2005-09-24T22:42:43Z</time>
            </trkpt>
            <trkpt lon="101.416087" lat="14.219901">
                <ele>52.048584</ele>
                <time>2005-09-24T22:42:54Z</time>
            </trkpt>
            <trkpt lon="101.416183" lat="14.219616">
                <ele>52.529175</ele>
                <time>2005-09-24T22:43:03Z</time>
            </trkpt>
            <trkpt lon="101.416278" lat="14.219331">
                <ele>53.490479</ele>
                <time>2005-09-24T22:43:12Z</time>
            </trkpt>
            <trkpt lon="101.416374" lat="14.219004">
                <ele>53.490479</ele>
                <time>2005-09-24T22:43:23Z</time>
            </trkpt>
            <trkpt lon="101.416391" lat="14.218795">
                <ele>54.451782</ele>
                <time>2005-09-24T22:43:32Z</time>
            </trkpt>
            <trkpt lon="101.416391" lat="14.218773">
                <ele>53.971191</ele>
                <time>2005-09-24T22:43:39Z</time>
            </trkpt>
            <trkpt lon="101.416367" lat="14.218715">
                <ele>53.971191</ele>
                <time>2005-09-24T22:43:52Z</time>
            </trkpt>
            <trkpt lon="101.416361" lat="14.218632">
                <ele>54.451782</ele>
                <time>2005-09-24T22:44:03Z</time>
            </trkpt>
            <trkpt lon="101.416357" lat="14.218623">
                <ele>54.451782</ele>
                <time>2005-09-24T22:44:14Z</time>
            </trkpt>
            <trkpt lon="101.416358" lat="14.218611">
                <ele>53.971191</ele>
                <time>2005-09-24T22:44:28Z</time>
            </trkpt>
            <trkpt lon="101.416349" lat="14.218591">
                <ele>53.971191</ele>
                <time>2005-09-24T22:44:51Z</time>
            </trkpt>
            <trkpt lon="101.416370" lat="14.218595">
                <ele>53.490479</ele>
                <time>2005-09-24T22:45:00Z</time>
            </trkpt>
            <trkpt lon="101.416366" lat="14.218608">
                <ele>52.529175</ele>
                <time>2005-09-24T22:45:24Z</time>
            </trkpt>
            <trkpt lon="101.416365" lat="14.218607">
                <ele>53.490479</ele>
                <time>2005-09-24T22:45:26Z</time>
            </trkpt>
            <trkpt lon="101.416364" lat="14.218569">
                <ele>53.971191</ele>
                <time>2005-09-24T22:45:50Z</time>
            </trkpt>
            <trkpt lon="101.416315" lat="14.218400">
                <ele>53.971191</ele>
                <time>2005-09-24T22:45:58Z</time>
            </trkpt>
            <trkpt lon="101.416251" lat="14.218076">
                <ele>53.971191</ele>
                <time>2005-09-24T22:46:06Z</time>
            </trkpt>
            <trkpt lon="101.416047" lat="14.217626">
                <ele>52.529175</ele>
                <time>2005-09-24T22:46:16Z</time>
            </trkpt>
            <trkpt lon="101.415738" lat="14.217190">
                <ele>51.087158</ele>
                <time>2005-09-24T22:46:27Z</time>
            </trkpt>
            <trkpt lon="101.415470" lat="14.216836">
                <ele>51.087158</ele>
                <time>2005-09-24T22:46:37Z</time>
            </trkpt>
            <trkpt lon="101.415201" lat="14.216393">
                <ele>50.125977</ele>
                <time>2005-09-24T22:46:48Z</time>
            </trkpt>
            <trkpt lon="101.414965" lat="14.215995">
                <ele>49.645264</ele>
                <time>2005-09-24T22:46:57Z</time>
            </trkpt>
            <trkpt lon="101.414834" lat="14.215813">
                <ele>48.683960</ele>
                <time>2005-09-24T22:47:02Z</time>
            </trkpt>
            <trkpt lon="101.414817" lat="14.215790">
                <ele>47.722534</ele>
                <time>2005-09-24T22:47:04Z</time>
            </trkpt>
            <trkpt lon="101.414694" lat="14.215675">
                <ele>48.203369</ele>
                <time>2005-09-24T22:47:10Z</time>
            </trkpt>
            <trkpt lon="101.414618" lat="14.215650">
                <ele>48.203369</ele>
                <time>2005-09-24T22:47:12Z</time>
            </trkpt>
            <trkpt lon="101.414239" lat="14.215659">
                <ele>46.761230</ele>
                <time>2005-09-24T22:47:20Z</time>
            </trkpt>
            <trkpt lon="101.414103" lat="14.215599">
                <ele>46.761230</ele>
                <time>2005-09-24T22:47:24Z</time>
            </trkpt>
            <trkpt lon="101.414081" lat="14.215566">
                <ele>45.799927</ele>
                <time>2005-09-24T22:47:25Z</time>
            </trkpt>
            <trkpt lon="101.414043" lat="14.215490">
                <ele>45.319214</ele>
                <time>2005-09-24T22:47:27Z</time>
            </trkpt>
            <trkpt lon="101.413913" lat="14.215308">
                <ele>44.358032</ele>
                <time>2005-09-24T22:47:32Z</time>
            </trkpt>
            <trkpt lon="101.413729" lat="14.215154">
                <ele>43.396606</ele>
                <time>2005-09-24T22:47:37Z</time>
            </trkpt>
            <trkpt lon="101.413418" lat="14.215096">
                <ele>42.435425</ele>
                <time>2005-09-24T22:47:45Z</time>
            </trkpt>
            <trkpt lon="101.413376" lat="14.215102">
                <ele>42.916016</ele>
                <time>2005-09-24T22:47:46Z</time>
            </trkpt>
            <trkpt lon="101.413053" lat="14.215271">
                <ele>41.473999</ele>
                <time>2005-09-24T22:47:53Z</time>
            </trkpt>
            <trkpt lon="101.412610" lat="14.215530">
                <ele>39.070679</ele>
                <time>2005-09-24T22:48:03Z</time>
            </trkpt>
            <trkpt lon="101.412103" lat="14.215805">
                <ele>37.628662</ele>
                <time>2005-09-24T22:48:14Z</time>
            </trkpt>
            <trkpt lon="101.411923" lat="14.215883">
                <ele>36.667480</ele>
                <time>2005-09-24T22:48:20Z</time>
            </trkpt>
            <trkpt lon="101.411861" lat="14.215914">
                <ele>37.148071</ele>
                <time>2005-09-24T22:48:27Z</time>
            </trkpt>
            <trkpt lon="101.411787" lat="14.215957">
                <ele>37.628662</ele>
                <time>2005-09-24T22:53:48Z</time>
            </trkpt>
            <trkpt lon="101.411566" lat="14.215963">
                <ele>37.148071</ele>
                <time>2005-09-24T22:53:54Z</time>
            </trkpt>
            <trkpt lon="101.411368" lat="14.215885">
                <ele>37.148071</ele>
                <time>2005-09-24T22:53:59Z</time>
            </trkpt>
            <trkpt lon="101.411332" lat="14.215864">
                <ele>36.667480</ele>
                <time>2005-09-24T22:54:04Z</time>
            </trkpt>
            <trkpt lon="101.411358" lat="14.215877">
                <ele>36.667480</ele>
                <time>2005-09-24T22:54:13Z</time>
            </trkpt>
            <trkpt lon="101.411502" lat="14.215955">
                <ele>37.148071</ele>
                <time>2005-09-24T22:54:25Z</time>
            </trkpt>
            <trkpt lon="101.411491" lat="14.215950">
                <ele>37.148071</ele>
                <time>2005-09-24T22:54:30Z</time>
            </trkpt>
            <trkpt lon="101.411322" lat="14.215866">
                <ele>36.667480</ele>
                <time>2005-09-24T22:54:38Z</time>
            </trkpt>
            <trkpt lon="101.411002" lat="14.215616">
                <ele>37.628662</ele>
                <time>2005-09-24T22:54:48Z</time>
            </trkpt>
            <trkpt lon="101.410590" lat="14.215103">
                <ele>38.109375</ele>
                <time>2005-09-24T22:55:03Z</time>
            </trkpt>
            <trkpt lon="101.410337" lat="14.214573">
                <ele>38.109375</ele>
                <time>2005-09-24T22:55:14Z</time>
            </trkpt>
            <trkpt lon="101.410108" lat="14.213981">
                <ele>37.148071</ele>
                <time>2005-09-24T22:55:26Z</time>
            </trkpt>
            <trkpt lon="101.409908" lat="14.213619">
                <ele>37.148071</ele>
                <time>2005-09-24T22:55:35Z</time>
            </trkpt>
            <trkpt lon="101.409656" lat="14.213128">
                <ele>34.744873</ele>
                <time>2005-09-24T22:55:45Z</time>
            </trkpt>
            <trkpt lon="101.409411" lat="14.212659">
                <ele>33.783447</ele>
                <time>2005-09-24T22:55:56Z</time>
            </trkpt>
            <trkpt lon="101.409071" lat="14.212285">
                <ele>33.302856</ele>
                <time>2005-09-24T22:56:05Z</time>
            </trkpt>
            <trkpt lon="101.409021" lat="14.212190">
                <ele>33.783447</ele>
                <time>2005-09-24T22:56:07Z</time>
            </trkpt>
            <trkpt lon="101.408810" lat="14.211765">
                <ele>33.302856</ele>
                <time>2005-09-24T22:56:16Z</time>
            </trkpt>
            <trkpt lon="101.408463" lat="14.211343">
                <ele>32.822266</ele>
                <time>2005-09-24T22:56:26Z</time>
            </trkpt>
            <trkpt lon="101.408303" lat="14.211221">
                <ele>32.341553</ele>
                <time>2005-09-24T22:56:30Z</time>
            </trkpt>
            <trkpt lon="101.407983" lat="14.211165">
                <ele>31.860718</ele>
                <time>2005-09-24T22:56:37Z</time>
            </trkpt>
            <trkpt lon="101.407935" lat="14.211170">
                <ele>31.860718</ele>
                <time>2005-09-24T22:56:38Z</time>
            </trkpt>
            <trkpt lon="101.407367" lat="14.211200">
                <ele>31.380127</ele>
                <time>2005-09-24T22:56:50Z</time>
            </trkpt>
            <trkpt lon="101.406984" lat="14.211015">
                <ele>31.860718</ele>
                <time>2005-09-24T22:56:59Z</time>
            </trkpt>
            <trkpt lon="101.406567" lat="14.210667">
                <ele>31.860718</ele>
                <time>2005-09-24T22:57:09Z</time>
            </trkpt>
            <trkpt lon="101.406270" lat="14.210371">
                <ele>31.380127</ele>
                <time>2005-09-24T22:57:17Z</time>
            </trkpt>
            <trkpt lon="101.406126" lat="14.210103">
                <ele>31.380127</ele>
                <time>2005-09-24T22:57:25Z</time>
            </trkpt>
            <trkpt lon="101.405992" lat="14.209726">
                <ele>31.380127</ele>
                <time>2005-09-24T22:57:36Z</time>
            </trkpt>
            <trkpt lon="101.405819" lat="14.209445">
                <ele>29.938110</ele>
                <time>2005-09-24T22:57:44Z</time>
            </trkpt>
            <trkpt lon="101.405794" lat="14.209422">
                <ele>29.938110</ele>
                <time>2005-09-24T22:57:50Z</time>
            </trkpt>
            <trkpt lon="101.405748" lat="14.209395">
                <ele>30.899536</ele>
                <time>2005-09-24T23:04:31Z</time>
            </trkpt>
            <trkpt lon="101.405600" lat="14.209327">
                <ele>31.380127</ele>
                <time>2005-09-24T23:04:40Z</time>
            </trkpt>
            <trkpt lon="101.405384" lat="14.209159">
                <ele>30.899536</ele>
                <time>2005-09-24T23:04:46Z</time>
            </trkpt>
            <trkpt lon="101.405120" lat="14.208995">
                <ele>30.899536</ele>
                <time>2005-09-24T23:04:54Z</time>
            </trkpt>
            <trkpt lon="101.404778" lat="14.208801">
                <ele>30.418823</ele>
                <time>2005-09-24T23:05:06Z</time>
            </trkpt>
            <trkpt lon="101.404462" lat="14.208618">
                <ele>29.457520</ele>
                <time>2005-09-24T23:05:15Z</time>
            </trkpt>
            <trkpt lon="101.404459" lat="14.208616">
                <ele>29.457520</ele>
                <time>2005-09-24T23:05:19Z</time>
            </trkpt>
            <trkpt lon="101.404460" lat="14.208617">
                <ele>29.457520</ele>
                <time>2005-09-24T23:05:20Z</time>
            </trkpt>
            <trkpt lon="101.404602" lat="14.208696">
                <ele>29.457520</ele>
                <time>2005-09-24T23:05:30Z</time>
            </trkpt>
            <trkpt lon="101.404781" lat="14.208789">
                <ele>29.457520</ele>
                <time>2005-09-24T23:05:44Z</time>
            </trkpt>
            <trkpt lon="101.404896" lat="14.208844">
                <ele>29.938110</ele>
                <time>2005-09-24T23:05:53Z</time>
            </trkpt>
            <trkpt lon="101.404840" lat="14.208850">
                <ele>30.418823</ele>
                <time>2005-09-24T23:06:08Z</time>
            </trkpt>
            <trkpt lon="101.404826" lat="14.208846">
                <ele>30.418823</ele>
                <time>2005-09-24T23:06:16Z</time>
            </trkpt>
            <trkpt lon="101.405011" lat="14.208953">
                <ele>30.418823</ele>
                <time>2005-09-24T23:06:36Z</time>
            </trkpt>
            <trkpt lon="101.405008" lat="14.208954">
                <ele>30.418823</ele>
                <time>2005-09-24T23:07:04Z</time>
            </trkpt>
            <trkpt lon="101.404852" lat="14.208867">
                <ele>29.938110</ele>
                <time>2005-09-24T23:07:13Z</time>
            </trkpt>
            <trkpt lon="101.404821" lat="14.208850">
                <ele>29.938110</ele>
                <time>2005-09-24T23:07:19Z</time>
            </trkpt>
            <trkpt lon="101.404712" lat="14.208795">
                <ele>29.938110</ele>
                <time>2005-09-24T23:07:30Z</time>
            </trkpt>
            <trkpt lon="101.404447" lat="14.208646">
                <ele>30.418823</ele>
                <time>2005-09-24T23:07:36Z</time>
            </trkpt>
            <trkpt lon="101.404184" lat="14.208496">
                <ele>28.976929</ele>
                <time>2005-09-24T23:07:43Z</time>
            </trkpt>
            <trkpt lon="101.403803" lat="14.208266">
                <ele>29.457520</ele>
                <time>2005-09-24T23:07:52Z</time>
            </trkpt>
            <trkpt lon="101.403391" lat="14.208010">
                <ele>28.976929</ele>
                <time>2005-09-24T23:08:01Z</time>
            </trkpt>
            <trkpt lon="101.402744" lat="14.207633">
                <ele>28.015503</ele>
                <time>2005-09-24T23:08:14Z</time>
            </trkpt>
            <trkpt lon="101.402160" lat="14.207421">
                <ele>28.015503</ele>
                <time>2005-09-24T23:08:25Z</time>
            </trkpt>
            <trkpt lon="101.401458" lat="14.207265">
                <ele>28.015503</ele>
                <time>2005-09-24T23:08:38Z</time>
            </trkpt>
            <trkpt lon="101.400808" lat="14.207091">
                <ele>27.534912</ele>
                <time>2005-09-24T23:08:50Z</time>
            </trkpt>
            <trkpt lon="101.400278" lat="14.206796">
                <ele>26.573608</ele>
                <time>2005-09-24T23:09:00Z</time>
            </trkpt>
            <trkpt lon="101.399799" lat="14.206551">
                <ele>26.092896</ele>
                <time>2005-09-24T23:09:10Z</time>
            </trkpt>
            <trkpt lon="101.399493" lat="14.206511">
                <ele>26.573608</ele>
                <time>2005-09-24T23:09:17Z</time>
            </trkpt>
            <trkpt lon="101.399207" lat="14.206589">
                <ele>28.015503</ele>
                <time>2005-09-24T23:09:25Z</time>
            </trkpt>
            <trkpt lon="101.399092" lat="14.206638">
                <ele>28.976929</ele>
                <time>2005-09-24T23:09:28Z</time>
            </trkpt>
            <trkpt lon="101.398816" lat="14.206889">
                <ele>29.457520</ele>
                <time>2005-09-24T23:09:36Z</time>
            </trkpt>
            <trkpt lon="101.398351" lat="14.207369">
                <ele>31.380127</ele>
                <time>2005-09-24T23:09:48Z</time>
            </trkpt>
            <trkpt lon="101.397939" lat="14.207662">
                <ele>32.822266</ele>
                <time>2005-09-24T23:09:57Z</time>
            </trkpt>
            <trkpt lon="101.397384" lat="14.207956">
                <ele>32.822266</ele>
                <time>2005-09-24T23:10:08Z</time>
            </trkpt>
            <trkpt lon="101.397050" lat="14.208211">
                <ele>30.899536</ele>
                <time>2005-09-24T23:10:16Z</time>
            </trkpt>
            <trkpt lon="101.396951" lat="14.208297">
                <ele>29.938110</ele>
                <time>2005-09-24T23:10:21Z</time>
            </trkpt>
            <trkpt lon="101.396949" lat="14.208297">
                <ele>28.976929</ele>
                <time>2005-09-24T23:10:31Z</time>
            </trkpt>
            <trkpt lon="101.396957" lat="14.208292">
                <ele>27.054321</ele>
                <time>2005-09-24T23:18:25Z</time>
            </trkpt>
            <trkpt lon="101.396961" lat="14.208290">
                <ele>28.496216</ele>
                <time>2005-09-24T23:18:42Z</time>
            </trkpt>
            <trkpt lon="101.396925" lat="14.208314">
                <ele>28.496216</ele>
                <time>2005-09-24T23:18:49Z</time>
            </trkpt>
            <trkpt lon="101.396881" lat="14.208338">
                <ele>28.015503</ele>
                <time>2005-09-24T23:18:52Z</time>
            </trkpt>
            <trkpt lon="101.396894" lat="14.208454">
                <ele>28.015503</ele>
                <time>2005-09-24T23:18:59Z</time>
            </trkpt>
            <trkpt lon="101.396862" lat="14.208563">
                <ele>26.573608</ele>
                <time>2005-09-24T23:19:05Z</time>
            </trkpt>
            <trkpt lon="101.396855" lat="14.208586">
                <ele>26.573608</ele>
                <time>2005-09-24T23:19:11Z</time>
            </trkpt>
            <trkpt lon="101.396862" lat="14.208583">
                <ele>27.534912</ele>
                <time>2005-09-24T23:19:28Z</time>
            </trkpt>
            <trkpt lon="101.396858" lat="14.208569">
                <ele>27.054321</ele>
                <time>2005-09-24T23:19:41Z</time>
            </trkpt>
            <trkpt lon="101.396849" lat="14.208576">
                <ele>27.054321</ele>
                <time>2005-09-24T23:20:29Z</time>
            </trkpt>
            <trkpt lon="101.396786" lat="14.208617">
                <ele>26.573608</ele>
                <time>2005-09-24T23:20:33Z</time>
            </trkpt>
            <trkpt lon="101.396662" lat="14.208707">
                <ele>25.612305</ele>
                <time>2005-09-24T23:20:42Z</time>
            </trkpt>
            <trkpt lon="101.396498" lat="14.208801">
                <ele>24.651001</ele>
                <time>2005-09-24T23:20:51Z</time>
            </trkpt>
            <trkpt lon="101.396379" lat="14.208893">
                <ele>24.170288</ele>
                <time>2005-09-24T23:20:58Z</time>
            </trkpt>
            <trkpt lon="101.396234" lat="14.208980">
                <ele>23.208984</ele>
                <time>2005-09-24T23:21:06Z</time>
            </trkpt>
            <trkpt lon="101.396072" lat="14.209080">
                <ele>21.766968</ele>
                <time>2005-09-24T23:21:15Z</time>
            </trkpt>
            <trkpt lon="101.395875" lat="14.209204">
                <ele>21.766968</ele>
                <time>2005-09-24T23:21:25Z</time>
            </trkpt>
            <trkpt lon="101.395737" lat="14.209288">
                <ele>21.766968</ele>
                <time>2005-09-24T23:21:34Z</time>
            </trkpt>
            <trkpt lon="101.395589" lat="14.209379">
                <ele>21.286377</ele>
                <time>2005-09-24T23:21:43Z</time>
            </trkpt>
            <trkpt lon="101.395409" lat="14.209484">
                <ele>21.286377</ele>
                <time>2005-09-24T23:21:53Z</time>
            </trkpt>
            <trkpt lon="101.395297" lat="14.209574">
                <ele>20.324951</ele>
                <time>2005-09-24T23:22:01Z</time>
            </trkpt>
            <trkpt lon="101.395279" lat="14.209596">
                <ele>20.805664</ele>
                <time>2005-09-24T23:22:08Z</time>
            </trkpt>
            <trkpt lon="101.395263" lat="14.209626">
                <ele>20.324951</ele>
                <time>2005-09-24T23:22:25Z</time>
            </trkpt>
            <trkpt lon="101.395162" lat="14.209719">
                <ele>20.324951</ele>
                <time>2005-09-24T23:22:35Z</time>
            </trkpt>
            <trkpt lon="101.395035" lat="14.209819">
                <ele>19.844360</ele>
                <time>2005-09-24T23:22:44Z</time>
            </trkpt>
            <trkpt lon="101.394942" lat="14.209878">
                <ele>19.844360</ele>
                <time>2005-09-24T23:22:53Z</time>
            </trkpt>
            <trkpt lon="101.394893" lat="14.209916">
                <ele>20.324951</ele>
                <time>2005-09-24T23:23:00Z</time>
            </trkpt>
            <trkpt lon="101.394877" lat="14.209923">
                <ele>20.324951</ele>
                <time>2005-09-24T23:23:07Z</time>
            </trkpt>
            <trkpt lon="101.394851" lat="14.209945">
                <ele>20.805664</ele>
                <time>2005-09-24T23:23:15Z</time>
            </trkpt>
            <trkpt lon="101.394799" lat="14.209972">
                <ele>21.286377</ele>
                <time>2005-09-24T23:23:26Z</time>
            </trkpt>
            <trkpt lon="101.394800" lat="14.209975">
                <ele>21.286377</ele>
                <time>2005-09-24T23:23:36Z</time>
            </trkpt>
            <trkpt lon="101.394785" lat="14.209987">
                <ele>21.766968</ele>
                <time>2005-09-24T23:23:57Z</time>
            </trkpt>
            <trkpt lon="101.394736" lat="14.210020">
                <ele>22.247559</ele>
                <time>2005-09-24T23:24:15Z</time>
            </trkpt>
            <trkpt lon="101.394705" lat="14.210043">
                <ele>22.728271</ele>
                <time>2005-09-24T23:24:22Z</time>
            </trkpt>
            <trkpt lon="101.394680" lat="14.210058">
                <ele>22.728271</ele>
                <time>2005-09-24T23:24:31Z</time>
            </trkpt>
            <trkpt lon="101.394662" lat="14.210083">
                <ele>22.247559</ele>
                <time>2005-09-24T23:24:41Z</time>
            </trkpt>
            <trkpt lon="101.394628" lat="14.210116">
                <ele>20.805664</ele>
                <time>2005-09-24T23:24:48Z</time>
            </trkpt>
            <trkpt lon="101.394583" lat="14.210139">
                <ele>20.805664</ele>
                <time>2005-09-24T23:24:59Z</time>
            </trkpt>
            <trkpt lon="101.394564" lat="14.210167">
                <ele>20.805664</ele>
                <time>2005-09-24T23:25:06Z</time>
            </trkpt>
            <trkpt lon="101.394567" lat="14.210176">
                <ele>20.805664</ele>
                <time>2005-09-24T23:25:13Z</time>
            </trkpt>
            <trkpt lon="101.394584" lat="14.210177">
                <ele>21.766968</ele>
                <time>2005-09-24T23:25:38Z</time>
            </trkpt>
            <trkpt lon="101.394551" lat="14.210190">
                <ele>22.728271</ele>
                <time>2005-09-24T23:27:22Z</time>
            </trkpt>
            <trkpt lon="101.394538" lat="14.210229">
                <ele>23.689575</ele>
                <time>2005-09-24T23:27:29Z</time>
            </trkpt>
            <trkpt lon="101.394536" lat="14.210239">
                <ele>22.728271</ele>
                <time>2005-09-24T23:27:35Z</time>
            </trkpt>
            <trkpt lon="101.394532" lat="14.210250">
                <ele>23.208984</ele>
                <time>2005-09-24T23:28:00Z</time>
            </trkpt>
            <trkpt lon="101.394501" lat="14.210280">
                <ele>22.728271</ele>
                <time>2005-09-24T23:28:06Z</time>
            </trkpt>
            <trkpt lon="101.394391" lat="14.210315">
                <ele>23.689575</ele>
                <time>2005-09-24T23:28:16Z</time>
            </trkpt>
            <trkpt lon="101.394299" lat="14.210388">
                <ele>24.170288</ele>
                <time>2005-09-24T23:28:25Z</time>
            </trkpt>
            <trkpt lon="101.394212" lat="14.210422">
                <ele>24.170288</ele>
                <time>2005-09-24T23:28:33Z</time>
            </trkpt>
            <trkpt lon="101.394150" lat="14.210497">
                <ele>24.651001</ele>
                <time>2005-09-24T23:28:42Z</time>
            </trkpt>
            <trkpt lon="101.394166" lat="14.210522">
                <ele>24.170288</ele>
                <time>2005-09-24T23:28:52Z</time>
            </trkpt>
            <trkpt lon="101.394177" lat="14.210547">
                <ele>24.651001</ele>
                <time>2005-09-24T23:28:58Z</time>
            </trkpt>
            <trkpt lon="101.394175" lat="14.210581">
                <ele>24.651001</ele>
                <time>2005-09-24T23:29:08Z</time>
            </trkpt>
            <trkpt lon="101.394165" lat="14.210636">
                <ele>25.131714</ele>
                <time>2005-09-24T23:29:17Z</time>
            </trkpt>
            <trkpt lon="101.394173" lat="14.210670">
                <ele>24.170288</ele>
                <time>2005-09-24T23:29:29Z</time>
            </trkpt>
            <trkpt lon="101.394163" lat="14.210701">
                <ele>25.612305</ele>
                <time>2005-09-24T23:29:41Z</time>
            </trkpt>
            <trkpt lon="101.394165" lat="14.210745">
                <ele>25.612305</ele>
                <time>2005-09-24T23:29:53Z</time>
            </trkpt>
            <trkpt lon="101.394208" lat="14.210805">
                <ele>25.612305</ele>
                <time>2005-09-24T23:30:02Z</time>
            </trkpt>
            <trkpt lon="101.394209" lat="14.210807">
                <ele>22.247559</ele>
                <time>2005-09-24T23:30:03Z</time>
            </trkpt>
            <trkpt lon="101.394210" lat="14.210808">
                <ele>22.728271</ele>
                <time>2005-09-24T23:30:04Z</time>
            </trkpt>
            <trkpt lon="101.394210" lat="14.210810">
                <ele>33.783447</ele>
                <time>2005-09-24T23:30:07Z</time>
            </trkpt>
            <trkpt lon="101.394211" lat="14.210811">
                <ele>27.054321</ele>
                <time>2005-09-24T23:30:08Z</time>
            </trkpt>
            <trkpt lon="101.394222" lat="14.210829">
                <ele>25.612305</ele>
                <time>2005-09-24T23:30:10Z</time>
            </trkpt>
            <trkpt lon="101.394218" lat="14.210846">
                <ele>25.612305</ele>
                <time>2005-09-24T23:30:15Z</time>
            </trkpt>
            <trkpt lon="101.394213" lat="14.210929">
                <ele>25.612305</ele>
                <time>2005-09-24T23:30:30Z</time>
            </trkpt>
            <trkpt lon="101.394215" lat="14.210955">
                <ele>26.092896</ele>
                <time>2005-09-24T23:30:37Z</time>
            </trkpt>
            <trkpt lon="101.394181" lat="14.211008">
                <ele>26.092896</ele>
                <time>2005-09-24T23:30:48Z</time>
            </trkpt>
            <trkpt lon="101.394145" lat="14.211061">
                <ele>26.092896</ele>
                <time>2005-09-24T23:31:03Z</time>
            </trkpt>
            <trkpt lon="101.394122" lat="14.211101">
                <ele>26.573608</ele>
                <time>2005-09-24T23:31:11Z</time>
            </trkpt>
            <trkpt lon="101.394060" lat="14.211109">
                <ele>26.573608</ele>
                <time>2005-09-24T23:31:18Z</time>
            </trkpt>
            <trkpt lon="101.394059" lat="14.211115">
                <ele>26.573608</ele>
                <time>2005-09-24T23:31:27Z</time>
            </trkpt>
            <trkpt lon="101.394007" lat="14.211126">
                <ele>27.054321</ele>
                <time>2005-09-24T23:32:05Z</time>
            </trkpt>
            <trkpt lon="101.393970" lat="14.211142">
                <ele>28.015503</ele>
                <time>2005-09-24T23:32:13Z</time>
            </trkpt>
            <trkpt lon="101.393915" lat="14.211159">
                <ele>28.015503</ele>
                <time>2005-09-24T23:32:20Z</time>
            </trkpt>
            <trkpt lon="101.393857" lat="14.211188">
                <ele>28.496216</ele>
                <time>2005-09-24T23:32:31Z</time>
            </trkpt>
            <trkpt lon="101.393826" lat="14.211243">
                <ele>28.015503</ele>
                <time>2005-09-24T23:32:42Z</time>
            </trkpt>
            <trkpt lon="101.393747" lat="14.211317">
                <ele>27.534912</ele>
                <time>2005-09-24T23:32:50Z</time>
            </trkpt>
            <trkpt lon="101.393648" lat="14.211443">
                <ele>27.534912</ele>
                <time>2005-09-24T23:33:00Z</time>
            </trkpt>
            <trkpt lon="101.393531" lat="14.211587">
                <ele>28.496216</ele>
                <time>2005-09-24T23:33:11Z</time>
            </trkpt>
            <trkpt lon="101.393415" lat="14.211689">
                <ele>28.976929</ele>
                <time>2005-09-24T23:33:20Z</time>
            </trkpt>
            <trkpt lon="101.393324" lat="14.211775">
                <ele>29.457520</ele>
                <time>2005-09-24T23:33:28Z</time>
            </trkpt>
            <trkpt lon="101.393198" lat="14.211788">
                <ele>29.938110</ele>
                <time>2005-09-24T23:33:37Z</time>
            </trkpt>
            <trkpt lon="101.393049" lat="14.211709">
                <ele>29.457520</ele>
                <time>2005-09-24T23:33:44Z</time>
            </trkpt>
            <trkpt lon="101.392859" lat="14.211643">
                <ele>29.938110</ele>
                <time>2005-09-24T23:33:53Z</time>
            </trkpt>
            <trkpt lon="101.392592" lat="14.211557">
                <ele>30.418823</ele>
                <time>2005-09-24T23:34:04Z</time>
            </trkpt>
            <trkpt lon="101.392294" lat="14.211458">
                <ele>31.860718</ele>
                <time>2005-09-24T23:34:15Z</time>
            </trkpt>
            <trkpt lon="101.391900" lat="14.211351">
                <ele>31.860718</ele>
                <time>2005-09-24T23:34:28Z</time>
            </trkpt>
            <trkpt lon="101.391636" lat="14.211314">
                <ele>31.380127</ele>
                <time>2005-09-24T23:34:37Z</time>
            </trkpt>
            <trkpt lon="101.391394" lat="14.211316">
                <ele>31.380127</ele>
                <time>2005-09-24T23:34:45Z</time>
            </trkpt>
            <trkpt lon="101.391044" lat="14.211312">
                <ele>32.341553</ele>
                <time>2005-09-24T23:34:56Z</time>
            </trkpt>
            <trkpt lon="101.390818" lat="14.211355">
                <ele>33.302856</ele>
                <time>2005-09-24T23:35:04Z</time>
            </trkpt>
            <trkpt lon="101.390793" lat="14.211477">
                <ele>33.783447</ele>
                <time>2005-09-24T23:35:10Z</time>
            </trkpt>
            <trkpt lon="101.390873" lat="14.211578">
                <ele>33.302856</ele>
                <time>2005-09-24T23:35:16Z</time>
            </trkpt>
            <trkpt lon="101.391063" lat="14.211822">
                <ele>33.302856</ele>
                <time>2005-09-24T23:35:25Z</time>
            </trkpt>
            <trkpt lon="101.391356" lat="14.212207">
                <ele>33.783447</ele>
                <time>2005-09-24T23:35:37Z</time>
            </trkpt>
            <trkpt lon="101.391622" lat="14.212591">
                <ele>34.744873</ele>
                <time>2005-09-24T23:35:48Z</time>
            </trkpt>
            <trkpt lon="101.391767" lat="14.212783">
                <ele>35.706055</ele>
                <time>2005-09-24T23:35:54Z</time>
            </trkpt>
            <trkpt lon="101.392175" lat="14.213093">
                <ele>34.744873</ele>
                <time>2005-09-24T23:36:06Z</time>
            </trkpt>
            <trkpt lon="101.392696" lat="14.213402">
                <ele>33.783447</ele>
                <time>2005-09-24T23:36:18Z</time>
            </trkpt>
            <trkpt lon="101.393187" lat="14.213698">
                <ele>32.822266</ele>
                <time>2005-09-24T23:36:29Z</time>
            </trkpt>
            <trkpt lon="101.393588" lat="14.213919">
                <ele>33.783447</ele>
                <time>2005-09-24T23:36:38Z</time>
            </trkpt>
            <trkpt lon="101.393906" lat="14.214095">
                <ele>33.302856</ele>
                <time>2005-09-24T23:36:46Z</time>
            </trkpt>
            <trkpt lon="101.394515" lat="14.214298">
                <ele>34.264160</ele>
                <time>2005-09-24T23:36:59Z</time>
            </trkpt>
            <trkpt lon="101.395053" lat="14.214398">
                <ele>35.225464</ele>
                <time>2005-09-24T23:37:09Z</time>
            </trkpt>
            <trkpt lon="101.395821" lat="14.214515">
                <ele>36.667480</ele>
                <time>2005-09-24T23:37:23Z</time>
            </trkpt>
            <trkpt lon="101.396402" lat="14.214535">
                <ele>36.186768</ele>
                <time>2005-09-24T23:37:33Z</time>
            </trkpt>
            <trkpt lon="101.397027" lat="14.214544">
                <ele>36.667480</ele>
                <time>2005-09-24T23:37:44Z</time>
            </trkpt>
            <trkpt lon="101.397567" lat="14.214559">
                <ele>36.667480</ele>
                <time>2005-09-24T23:37:55Z</time>
            </trkpt>
            <trkpt lon="101.398055" lat="14.214561">
                <ele>36.186768</ele>
                <time>2005-09-24T23:38:06Z</time>
            </trkpt>
            <trkpt lon="101.398264" lat="14.214582">
                <ele>36.667480</ele>
                <time>2005-09-24T23:38:11Z</time>
            </trkpt>
            <trkpt lon="101.398601" lat="14.214593">
                <ele>35.706055</ele>
                <time>2005-09-24T23:38:20Z</time>
            </trkpt>
            <trkpt lon="101.398644" lat="14.214596">
                <ele>35.706055</ele>
                <time>2005-09-24T23:38:21Z</time>
            </trkpt>
            <trkpt lon="101.398862" lat="14.214640">
                <ele>35.706055</ele>
                <time>2005-09-24T23:38:26Z</time>
            </trkpt>
            <trkpt lon="101.399352" lat="14.214894">
                <ele>34.744873</ele>
                <time>2005-09-24T23:38:38Z</time>
            </trkpt>
            <trkpt lon="101.399492" lat="14.214923">
                <ele>34.744873</ele>
                <time>2005-09-24T23:38:41Z</time>
            </trkpt>
            <trkpt lon="101.399889" lat="14.214862">
                <ele>33.783447</ele>
                <time>2005-09-24T23:38:50Z</time>
            </trkpt>
            <trkpt lon="101.400334" lat="14.214670">
                <ele>34.264160</ele>
                <time>2005-09-24T23:39:01Z</time>
            </trkpt>
            <trkpt lon="101.400761" lat="14.214451">
                <ele>34.264160</ele>
                <time>2005-09-24T23:39:13Z</time>
            </trkpt>
            <trkpt lon="101.401186" lat="14.214249">
                <ele>33.302856</ele>
                <time>2005-09-24T23:39:25Z</time>
            </trkpt>
            <trkpt lon="101.401339" lat="14.214197">
                <ele>30.899536</ele>
                <time>2005-09-24T23:39:30Z</time>
            </trkpt>
            <trkpt lon="101.401573" lat="14.214105">
                <ele>28.976929</ele>
                <time>2005-09-24T23:39:38Z</time>
            </trkpt>
            <trkpt lon="101.401808" lat="14.214027">
                <ele>28.496216</ele>
                <time>2005-09-24T23:39:45Z</time>
            </trkpt>
            <trkpt lon="101.402001" lat="14.213954">
                <ele>27.534912</ele>
                <time>2005-09-24T23:39:51Z</time>
            </trkpt>
            <trkpt lon="101.402194" lat="14.213914">
                <ele>27.534912</ele>
                <time>2005-09-24T23:39:59Z</time>
            </trkpt>
            <trkpt lon="101.402240" lat="14.213908">
                <ele>26.092896</ele>
                <time>2005-09-24T23:40:05Z</time>
            </trkpt>
            <trkpt lon="101.402314" lat="14.213903">
                <ele>26.092896</ele>
                <time>2005-09-24T23:40:15Z</time>
            </trkpt>
            <trkpt lon="101.402298" lat="14.213832">
                <ele>25.612305</ele>
                <time>2005-09-24T23:40:21Z</time>
            </trkpt>
            <trkpt lon="101.402267" lat="14.213829">
                <ele>26.092896</ele>
                <time>2005-09-24T23:40:30Z</time>
            </trkpt>
            <trkpt lon="101.402255" lat="14.213840">
                <ele>26.573608</ele>
                <time>2005-09-24T23:40:37Z</time>
            </trkpt>
            <trkpt lon="101.402264" lat="14.213849">
                <ele>26.573608</ele>
                <time>2005-09-24T23:41:23Z</time>
            </trkpt>
            <trkpt lon="101.402279" lat="14.213851">
                <ele>28.496216</ele>
                <time>2005-09-24T23:47:21Z</time>
            </trkpt>
            <trkpt lon="101.402307" lat="14.213856">
                <ele>28.015503</ele>
                <time>2005-09-24T23:47:35Z</time>
            </trkpt>
            <trkpt lon="101.402313" lat="14.213860">
                <ele>27.534912</ele>
                <time>2005-09-24T23:47:36Z</time>
            </trkpt>
            <trkpt lon="101.402382" lat="14.213912">
                <ele>28.015503</ele>
                <time>2005-09-24T23:47:42Z</time>
            </trkpt>
            <trkpt lon="101.402524" lat="14.214049">
                <ele>27.534912</ele>
                <time>2005-09-24T23:47:53Z</time>
            </trkpt>
            <trkpt lon="101.402669" lat="14.214197">
                <ele>27.534912</ele>
                <time>2005-09-24T23:48:00Z</time>
            </trkpt>
            <trkpt lon="101.402950" lat="14.214472">
                <ele>27.054321</ele>
                <time>2005-09-24T23:48:12Z</time>
            </trkpt>
            <trkpt lon="101.403121" lat="14.214645">
                <ele>27.534912</ele>
                <time>2005-09-24T23:48:20Z</time>
            </trkpt>
            <trkpt lon="101.403381" lat="14.214915">
                <ele>27.054321</ele>
                <time>2005-09-24T23:48:31Z</time>
            </trkpt>
            <trkpt lon="101.403696" lat="14.215228">
                <ele>28.976929</ele>
                <time>2005-09-24T23:48:42Z</time>
            </trkpt>
            <trkpt lon="101.404016" lat="14.215545">
                <ele>29.938110</ele>
                <time>2005-09-24T23:48:53Z</time>
            </trkpt>
            <trkpt lon="101.404197" lat="14.215727">
                <ele>30.899536</ele>
                <time>2005-09-24T23:49:01Z</time>
            </trkpt>
            <trkpt lon="101.404253" lat="14.215814">
                <ele>31.860718</ele>
                <time>2005-09-24T23:49:09Z</time>
            </trkpt>
            <trkpt lon="101.404252" lat="14.215822">
                <ele>32.822266</ele>
                <time>2005-09-24T23:49:19Z</time>
            </trkpt>
            <trkpt lon="101.404261" lat="14.215815">
                <ele>31.860718</ele>
                <time>2005-09-24T23:49:35Z</time>
            </trkpt>
            <trkpt lon="101.404276" lat="14.215831">
                <ele>32.341553</ele>
                <time>2005-09-24T23:50:10Z</time>
            </trkpt>
            <trkpt lon="101.404266" lat="14.215840">
                <ele>31.860718</ele>
                <time>2005-09-24T23:50:12Z</time>
            </trkpt>
            <trkpt lon="101.404220" lat="14.215865">
                <ele>31.860718</ele>
                <time>2005-09-24T23:50:20Z</time>
            </trkpt>
            <trkpt lon="101.404213" lat="14.215850">
                <ele>32.341553</ele>
                <time>2005-09-24T23:50:26Z</time>
            </trkpt>
            <trkpt lon="101.404243" lat="14.215808">
                <ele>32.341553</ele>
                <time>2005-09-24T23:50:30Z</time>
            </trkpt>
            <trkpt lon="101.404285" lat="14.215815">
                <ele>31.860718</ele>
                <time>2005-09-24T23:50:35Z</time>
            </trkpt>
            <trkpt lon="101.404236" lat="14.215839">
                <ele>32.341553</ele>
                <time>2005-09-24T23:50:39Z</time>
            </trkpt>
            <trkpt lon="101.404189" lat="14.215892">
                <ele>32.341553</ele>
                <time>2005-09-24T23:50:44Z</time>
            </trkpt>
            <trkpt lon="101.404015" lat="14.216041">
                <ele>31.860718</ele>
                <time>2005-09-24T23:50:54Z</time>
            </trkpt>
            <trkpt lon="101.403982" lat="14.216076">
                <ele>32.822266</ele>
                <time>2005-09-24T23:51:00Z</time>
            </trkpt>
            <trkpt lon="101.404001" lat="14.216082">
                <ele>32.822266</ele>
                <time>2005-09-24T23:51:04Z</time>
            </trkpt>
            <trkpt lon="101.404019" lat="14.216125">
                <ele>32.341553</ele>
                <time>2005-09-24T23:51:08Z</time>
            </trkpt>
            <trkpt lon="101.403982" lat="14.216274">
                <ele>32.822266</ele>
                <time>2005-09-24T23:51:18Z</time>
            </trkpt>
            <trkpt lon="101.403915" lat="14.216390">
                <ele>33.302856</ele>
                <time>2005-09-24T23:51:27Z</time>
            </trkpt>
            <trkpt lon="101.403903" lat="14.216426">
                <ele>33.302856</ele>
                <time>2005-09-24T23:51:30Z</time>
            </trkpt>
            <trkpt lon="101.403921" lat="14.216412">
                <ele>33.302856</ele>
                <time>2005-09-24T23:51:36Z</time>
            </trkpt>
            <trkpt lon="101.403912" lat="14.216397">
                <ele>32.822266</ele>
                <time>2005-09-24T23:51:38Z</time>
            </trkpt>
            <trkpt lon="101.403955" lat="14.216318">
                <ele>32.341553</ele>
                <time>2005-09-24T23:51:45Z</time>
            </trkpt>
            <trkpt lon="101.404006" lat="14.216213">
                <ele>32.341553</ele>
                <time>2005-09-24T23:51:52Z</time>
            </trkpt>
            <trkpt lon="101.404017" lat="14.216080">
                <ele>33.302856</ele>
                <time>2005-09-24T23:52:00Z</time>
            </trkpt>
            <trkpt lon="101.403994" lat="14.216060">
                <ele>33.302856</ele>
                <time>2005-09-24T23:52:08Z</time>
            </trkpt>
            <trkpt lon="101.403990" lat="14.216043">
                <ele>33.302856</ele>
                <time>2005-09-24T23:52:17Z</time>
            </trkpt>
            <trkpt lon="101.403998" lat="14.216060">
                <ele>32.822266</ele>
                <time>2005-09-24T23:52:22Z</time>
            </trkpt>
            <trkpt lon="101.403947" lat="14.216090">
                <ele>32.822266</ele>
                <time>2005-09-24T23:52:26Z</time>
            </trkpt>
            <trkpt lon="101.403821" lat="14.216185">
                <ele>33.302856</ele>
                <time>2005-09-24T23:52:36Z</time>
            </trkpt>
            <trkpt lon="101.403797" lat="14.216210">
                <ele>33.302856</ele>
                <time>2005-09-24T23:52:43Z</time>
            </trkpt>
            <trkpt lon="101.403748" lat="14.216257">
                <ele>32.822266</ele>
                <time>2005-09-24T23:52:51Z</time>
            </trkpt>
            <trkpt lon="101.403709" lat="14.216303">
                <ele>33.302856</ele>
                <time>2005-09-24T23:52:58Z</time>
            </trkpt>
            <trkpt lon="101.403677" lat="14.216342">
                <ele>33.302856</ele>
                <time>2005-09-24T23:53:04Z</time>
            </trkpt>
            <trkpt lon="101.403556" lat="14.216464">
                <ele>32.822266</ele>
                <time>2005-09-24T23:53:13Z</time>
            </trkpt>
            <trkpt lon="101.403444" lat="14.216613">
                <ele>33.783447</ele>
                <time>2005-09-24T23:53:22Z</time>
            </trkpt>
            <trkpt lon="101.403387" lat="14.216719">
                <ele>33.783447</ele>
                <time>2005-09-24T23:53:30Z</time>
            </trkpt>
            <trkpt lon="101.403295" lat="14.216850">
                <ele>34.264160</ele>
                <time>2005-09-24T23:53:38Z</time>
            </trkpt>
            <trkpt lon="101.403184" lat="14.216984">
                <ele>34.744873</ele>
                <time>2005-09-24T23:53:48Z</time>
            </trkpt>
            <trkpt lon="101.403098" lat="14.217039">
                <ele>34.744873</ele>
                <time>2005-09-24T23:53:55Z</time>
            </trkpt>
            <trkpt lon="101.403048" lat="14.217052">
                <ele>34.744873</ele>
                <time>2005-09-24T23:53:58Z</time>
            </trkpt>
            <trkpt lon="101.402920" lat="14.217145">
                <ele>34.744873</ele>
                <time>2005-09-24T23:54:07Z</time>
            </trkpt>
            <trkpt lon="101.402825" lat="14.217241">
                <ele>34.744873</ele>
                <time>2005-09-24T23:54:16Z</time>
            </trkpt>
            <trkpt lon="101.402777" lat="14.217305">
                <ele>35.225464</ele>
                <time>2005-09-24T23:54:21Z</time>
            </trkpt>
            <trkpt lon="101.402625" lat="14.217355">
                <ele>35.706055</ele>
                <time>2005-09-24T23:54:31Z</time>
            </trkpt>
            <trkpt lon="101.402452" lat="14.217295">
                <ele>36.186768</ele>
                <time>2005-09-24T23:54:40Z</time>
            </trkpt>
            <trkpt lon="101.402318" lat="14.217255">
                <ele>36.186768</ele>
                <time>2005-09-24T23:54:47Z</time>
            </trkpt>
            <trkpt lon="101.402165" lat="14.217283">
                <ele>34.744873</ele>
                <time>2005-09-24T23:54:56Z</time>
            </trkpt>
            <trkpt lon="101.401953" lat="14.217293">
                <ele>32.341553</ele>
                <time>2005-09-24T23:55:03Z</time>
            </trkpt>
            <trkpt lon="101.401736" lat="14.217310">
                <ele>31.380127</ele>
                <time>2005-09-24T23:55:11Z</time>
            </trkpt>
            <trkpt lon="101.401621" lat="14.217320">
                <ele>29.938110</ele>
                <time>2005-09-24T23:55:17Z</time>
            </trkpt>
            <trkpt lon="101.401601" lat="14.217316">
                <ele>29.938110</ele>
                <time>2005-09-24T23:55:23Z</time>
            </trkpt>
            <trkpt lon="101.401552" lat="14.217270">
                <ele>29.938110</ele>
                <time>2005-09-24T23:55:43Z</time>
            </trkpt>
            <trkpt lon="101.401439" lat="14.217203">
                <ele>29.938110</ele>
                <time>2005-09-24T23:55:51Z</time>
            </trkpt>
            <trkpt lon="101.401367" lat="14.217112">
                <ele>29.457520</ele>
                <time>2005-09-24T23:55:59Z</time>
            </trkpt>
            <trkpt lon="101.401361" lat="14.217105">
                <ele>28.976929</ele>
                <time>2005-09-24T23:56:00Z</time>
            </trkpt>
            <trkpt lon="101.401281" lat="14.217048">
                <ele>28.976929</ele>
                <time>2005-09-24T23:56:06Z</time>
            </trkpt>
            <trkpt lon="101.401165" lat="14.217016">
                <ele>28.976929</ele>
                <time>2005-09-24T23:56:15Z</time>
            </trkpt>
            <trkpt lon="101.401145" lat="14.217021">
                <ele>28.976929</ele>
                <time>2005-09-24T23:56:21Z</time>
            </trkpt>
            <trkpt lon="101.401063" lat="14.217027">
                <ele>28.976929</ele>
                <time>2005-09-24T23:56:29Z</time>
            </trkpt>
            <trkpt lon="101.401005" lat="14.217021">
                <ele>28.496216</ele>
                <time>2005-09-24T23:56:36Z</time>
            </trkpt>
            <trkpt lon="101.400867" lat="14.216971">
                <ele>28.496216</ele>
                <time>2005-09-24T23:56:45Z</time>
            </trkpt>
            <trkpt lon="101.400717" lat="14.216907">
                <ele>28.976929</ele>
                <time>2005-09-24T23:56:54Z</time>
            </trkpt>
            <trkpt lon="101.400597" lat="14.216849">
                <ele>28.015503</ele>
                <time>2005-09-24T23:57:02Z</time>
            </trkpt>
            <trkpt lon="101.400524" lat="14.216821">
                <ele>28.015503</ele>
                <time>2005-09-24T23:57:09Z</time>
            </trkpt>
            <trkpt lon="101.400492" lat="14.216804">
                <ele>27.534912</ele>
                <time>2005-09-24T23:57:15Z</time>
            </trkpt>
            <trkpt lon="101.400490" lat="14.216808">
                <ele>27.534912</ele>
                <time>2005-09-24T23:57:26Z</time>
            </trkpt>
            <trkpt lon="101.400490" lat="14.216807">
                <ele>23.208984</ele>
                <time>2005-09-24T23:57:27Z</time>
            </trkpt>
            <trkpt lon="101.400490" lat="14.216806">
                <ele>28.496216</ele>
                <time>2005-09-24T23:57:28Z</time>
            </trkpt>
            <trkpt lon="101.400490" lat="14.216806">
                <ele>25.131714</ele>
                <time>2005-09-24T23:57:29Z</time>
            </trkpt>
            <trkpt lon="101.400490" lat="14.216805">
                <ele>29.457520</ele>
                <time>2005-09-24T23:57:30Z</time>
            </trkpt>
            <trkpt lon="101.400490" lat="14.216805">
                <ele>25.612305</ele>
                <time>2005-09-24T23:57:31Z</time>
            </trkpt>
            <trkpt lon="101.400490" lat="14.216804">
                <ele>34.744873</ele>
                <time>2005-09-24T23:57:33Z</time>
            </trkpt>
            <trkpt lon="101.400489" lat="14.216804">
                <ele>28.496216</ele>
                <time>2005-09-24T23:57:34Z</time>
            </trkpt>
            <trkpt lon="101.400489" lat="14.216804">
                <ele>28.015503</ele>
                <time>2005-09-24T23:57:36Z</time>
            </trkpt>
            <trkpt lon="101.400463" lat="14.216798">
                <ele>28.015503</ele>
                <time>2005-09-24T23:57:52Z</time>
            </trkpt>
            <trkpt lon="101.400444" lat="14.216804">
                <ele>28.496216</ele>
                <time>2005-09-24T23:58:05Z</time>
            </trkpt>
            <trkpt lon="101.400445" lat="14.216806">
                <ele>28.015503</ele>
                <time>2005-09-24T23:58:19Z</time>
            </trkpt>
            <trkpt lon="101.400405" lat="14.216794">
                <ele>27.534912</ele>
                <time>2005-09-24T23:58:30Z</time>
            </trkpt>
            <trkpt lon="101.400357" lat="14.216776">
                <ele>27.054321</ele>
                <time>2005-09-24T23:58:41Z</time>
            </trkpt>
            <trkpt lon="101.400322" lat="14.216776">
                <ele>27.054321</ele>
                <time>2005-09-24T23:58:52Z</time>
            </trkpt>
            <trkpt lon="101.400252" lat="14.216750">
                <ele>27.054321</ele>
                <time>2005-09-24T23:59:02Z</time>
            </trkpt>
            <trkpt lon="101.400239" lat="14.216743">
                <ele>29.938110</ele>
                <time>2005-09-24T23:59:05Z</time>
            </trkpt>
            <trkpt lon="101.400240" lat="14.216742">
                <ele>22.247559</ele>
                <time>2005-09-24T23:59:06Z</time>
            </trkpt>
            <trkpt lon="101.400237" lat="14.216741">
                <ele>27.534912</ele>
                <time>2005-09-24T23:59:07Z</time>
            </trkpt>
            <trkpt lon="101.400229" lat="14.216737">
                <ele>28.015503</ele>
                <time>2005-09-24T23:59:16Z</time>
            </trkpt>
            <trkpt lon="101.400197" lat="14.216707">
                <ele>27.534912</ele>
                <time>2005-09-24T23:59:25Z</time>
            </trkpt>
            <trkpt lon="101.400173" lat="14.216690">
                <ele>27.534912</ele>
                <time>2005-09-24T23:59:42Z</time>
            </trkpt>
            <trkpt lon="101.400142" lat="14.216655">
                <ele>27.054321</ele>
                <time>2005-09-24T23:59:51Z</time>
            </trkpt>
            <trkpt lon="101.400110" lat="14.216635">
                <ele>27.054321</ele>
                <time>2005-09-24T23:59:58Z</time>
            </trkpt>
            <trkpt lon="101.400068" lat="14.216611">
                <ele>27.054321</ele>
                <time>2005-09-25T00:00:06Z</time>
            </trkpt>
            <trkpt lon="101.400023" lat="14.216590">
                <ele>27.054321</ele>
                <time>2005-09-25T00:00:14Z</time>
            </trkpt>
            <trkpt lon="101.400022" lat="14.216586">
                <ele>27.054321</ele>
                <time>2005-09-25T00:00:24Z</time>
            </trkpt>
            <trkpt lon="101.399996" lat="14.216573">
                <ele>27.054321</ele>
                <time>2005-09-25T00:00:34Z</time>
            </trkpt>
            <trkpt lon="101.399970" lat="14.216556">
                <ele>26.092896</ele>
                <time>2005-09-25T00:00:41Z</time>
            </trkpt>
            <trkpt lon="101.399937" lat="14.216513">
                <ele>26.092896</ele>
                <time>2005-09-25T00:00:51Z</time>
            </trkpt>
            <trkpt lon="101.399923" lat="14.216475">
                <ele>25.612305</ele>
                <time>2005-09-25T00:00:58Z</time>
            </trkpt>
            <trkpt lon="101.399890" lat="14.216412">
                <ele>24.651001</ele>
                <time>2005-09-25T00:01:08Z</time>
            </trkpt>
            <trkpt lon="101.399851" lat="14.216357">
                <ele>25.131714</ele>
                <time>2005-09-25T00:01:18Z</time>
            </trkpt>
            <trkpt lon="101.399823" lat="14.216325">
                <ele>25.131714</ele>
                <time>2005-09-25T00:01:27Z</time>
            </trkpt>
            <trkpt lon="101.399790" lat="14.216321">
                <ele>25.612305</ele>
                <time>2005-09-25T00:01:35Z</time>
            </trkpt>
            <trkpt lon="101.399759" lat="14.216322">
                <ele>25.131714</ele>
                <time>2005-09-25T00:01:42Z</time>
            </trkpt>
            <trkpt lon="101.399740" lat="14.216303">
                <ele>25.612305</ele>
                <time>2005-09-25T00:01:49Z</time>
            </trkpt>
            <trkpt lon="101.399727" lat="14.216286">
                <ele>25.612305</ele>
                <time>2005-09-25T00:01:57Z</time>
            </trkpt>
            <trkpt lon="101.399689" lat="14.216247">
                <ele>25.612305</ele>
                <time>2005-09-25T00:02:07Z</time>
            </trkpt>
            <trkpt lon="101.399657" lat="14.216194">
                <ele>25.612305</ele>
                <time>2005-09-25T00:02:16Z</time>
            </trkpt>
            <trkpt lon="101.399640" lat="14.216165">
                <ele>25.612305</ele>
                <time>2005-09-25T00:02:26Z</time>
            </trkpt>
            <trkpt lon="101.399615" lat="14.216145">
                <ele>26.092896</ele>
                <time>2005-09-25T00:02:35Z</time>
            </trkpt>
            <trkpt lon="101.399607" lat="14.216119">
                <ele>25.612305</ele>
                <time>2005-09-25T00:02:44Z</time>
            </trkpt>
            <trkpt lon="101.399591" lat="14.216096">
                <ele>25.612305</ele>
                <time>2005-09-25T00:02:52Z</time>
            </trkpt>
            <trkpt lon="101.399553" lat="14.216062">
                <ele>25.612305</ele>
                <time>2005-09-25T00:03:01Z</time>
            </trkpt>
            <trkpt lon="101.399516" lat="14.216013">
                <ele>25.612305</ele>
                <time>2005-09-25T00:03:09Z</time>
            </trkpt>
            <trkpt lon="101.399475" lat="14.215965">
                <ele>26.092896</ele>
                <time>2005-09-25T00:03:18Z</time>
            </trkpt>
            <trkpt lon="101.399429" lat="14.215917">
                <ele>25.612305</ele>
                <time>2005-09-25T00:03:27Z</time>
            </trkpt>
            <trkpt lon="101.399405" lat="14.215894">
                <ele>26.092896</ele>
                <time>2005-09-25T00:03:35Z</time>
            </trkpt>
            <trkpt lon="101.399361" lat="14.215859">
                <ele>25.612305</ele>
                <time>2005-09-25T00:03:48Z</time>
            </trkpt>
            <trkpt lon="101.399340" lat="14.215852">
                <ele>26.092896</ele>
                <time>2005-09-25T00:03:56Z</time>
            </trkpt>
            <trkpt lon="101.399295" lat="14.215843">
                <ele>25.131714</ele>
                <time>2005-09-25T00:04:04Z</time>
            </trkpt>
            <trkpt lon="101.399266" lat="14.215842">
                <ele>25.612305</ele>
                <time>2005-09-25T00:04:10Z</time>
            </trkpt>
            <trkpt lon="101.399252" lat="14.215846">
                <ele>24.170288</ele>
                <time>2005-09-25T00:04:17Z</time>
            </trkpt>
            <trkpt lon="101.399218" lat="14.215862">
                <ele>25.131714</ele>
                <time>2005-09-25T00:04:26Z</time>
            </trkpt>
            <trkpt lon="101.399208" lat="14.215875">
                <ele>25.131714</ele>
                <time>2005-09-25T00:04:35Z</time>
            </trkpt>
            <trkpt lon="101.399197" lat="14.215917">
                <ele>25.612305</ele>
                <time>2005-09-25T00:04:43Z</time>
            </trkpt>
            <trkpt lon="101.399146" lat="14.215913">
                <ele>25.612305</ele>
                <time>2005-09-25T00:04:50Z</time>
            </trkpt>
            <trkpt lon="101.399115" lat="14.215924">
                <ele>26.092896</ele>
                <time>2005-09-25T00:04:57Z</time>
            </trkpt>
            <trkpt lon="101.399066" lat="14.215936">
                <ele>27.054321</ele>
                <time>2005-09-25T00:05:07Z</time>
            </trkpt>
            <trkpt lon="101.399037" lat="14.215930">
                <ele>26.573608</ele>
                <time>2005-09-25T00:05:15Z</time>
            </trkpt>
            <trkpt lon="101.398970" lat="14.215940">
                <ele>26.573608</ele>
                <time>2005-09-25T00:05:23Z</time>
            </trkpt>
            <trkpt lon="101.398955" lat="14.215944">
                <ele>26.573608</ele>
                <time>2005-09-25T00:05:25Z</time>
            </trkpt>
            <trkpt lon="101.398887" lat="14.215954">
                <ele>26.573608</ele>
                <time>2005-09-25T00:05:34Z</time>
            </trkpt>
            <trkpt lon="101.398828" lat="14.215979">
                <ele>26.573608</ele>
                <time>2005-09-25T00:05:44Z</time>
            </trkpt>
            <trkpt lon="101.398790" lat="14.216018">
                <ele>26.573608</ele>
                <time>2005-09-25T00:05:54Z</time>
            </trkpt>
            <trkpt lon="101.398766" lat="14.216045">
                <ele>26.092896</ele>
                <time>2005-09-25T00:06:05Z</time>
            </trkpt>
            <trkpt lon="101.398711" lat="14.216073">
                <ele>26.092896</ele>
                <time>2005-09-25T00:06:15Z</time>
            </trkpt>
            <trkpt lon="101.398655" lat="14.216095">
                <ele>26.573608</ele>
                <time>2005-09-25T00:06:23Z</time>
            </trkpt>
            <trkpt lon="101.398605" lat="14.216113">
                <ele>26.092896</ele>
                <time>2005-09-25T00:06:34Z</time>
            </trkpt>
            <trkpt lon="101.398548" lat="14.216140">
                <ele>26.092896</ele>
                <time>2005-09-25T00:06:44Z</time>
            </trkpt>
            <trkpt lon="101.398520" lat="14.216154">
                <ele>26.573608</ele>
                <time>2005-09-25T00:06:53Z</time>
            </trkpt>
            <trkpt lon="101.398493" lat="14.216163">
                <ele>26.092896</ele>
                <time>2005-09-25T00:07:00Z</time>
            </trkpt>
            <trkpt lon="101.398466" lat="14.216172">
                <ele>26.092896</ele>
                <time>2005-09-25T00:07:08Z</time>
            </trkpt>
            <trkpt lon="101.398421" lat="14.216183">
                <ele>26.092896</ele>
                <time>2005-09-25T00:07:17Z</time>
            </trkpt>
            <trkpt lon="101.398367" lat="14.216203">
                <ele>25.612305</ele>
                <time>2005-09-25T00:07:26Z</time>
            </trkpt>
            <trkpt lon="101.398320" lat="14.216218">
                <ele>25.612305</ele>
                <time>2005-09-25T00:07:34Z</time>
            </trkpt>
            <trkpt lon="101.398299" lat="14.216223">
                <ele>26.092896</ele>
                <time>2005-09-25T00:07:40Z</time>
            </trkpt>
            <trkpt lon="101.398260" lat="14.216228">
                <ele>26.092896</ele>
                <time>2005-09-25T00:07:51Z</time>
            </trkpt>
            <trkpt lon="101.398210" lat="14.216248">
                <ele>26.092896</ele>
                <time>2005-09-25T00:08:00Z</time>
            </trkpt>
            <trkpt lon="101.398154" lat="14.216260">
                <ele>26.092896</ele>
                <time>2005-09-25T00:08:09Z</time>
            </trkpt>
            <trkpt lon="101.398096" lat="14.216282">
                <ele>25.612305</ele>
                <time>2005-09-25T00:08:20Z</time>
            </trkpt>
            <trkpt lon="101.398065" lat="14.216314">
                <ele>26.092896</ele>
                <time>2005-09-25T00:08:29Z</time>
            </trkpt>
            <trkpt lon="101.398055" lat="14.216333">
                <ele>26.092896</ele>
                <time>2005-09-25T00:08:41Z</time>
            </trkpt>
            <trkpt lon="101.398038" lat="14.216374">
                <ele>26.092896</ele>
                <time>2005-09-25T00:08:51Z</time>
            </trkpt>
            <trkpt lon="101.398006" lat="14.216419">
                <ele>26.092896</ele>
                <time>2005-09-25T00:09:00Z</time>
            </trkpt>
            <trkpt lon="101.398005" lat="14.216439">
                <ele>25.131714</ele>
                <time>2005-09-25T00:09:09Z</time>
            </trkpt>
            <trkpt lon="101.397989" lat="14.216495">
                <ele>25.612305</ele>
                <time>2005-09-25T00:09:25Z</time>
            </trkpt>
            <trkpt lon="101.397955" lat="14.216500">
                <ele>25.131714</ele>
                <time>2005-09-25T00:09:33Z</time>
            </trkpt>
            <trkpt lon="101.397901" lat="14.216516">
                <ele>25.612305</ele>
                <time>2005-09-25T00:09:43Z</time>
            </trkpt>
            <trkpt lon="101.397862" lat="14.216539">
                <ele>25.612305</ele>
                <time>2005-09-25T00:09:52Z</time>
            </trkpt>
            <trkpt lon="101.397814" lat="14.216563">
                <ele>25.612305</ele>
                <time>2005-09-25T00:10:03Z</time>
            </trkpt>
            <trkpt lon="101.397782" lat="14.216595">
                <ele>25.131714</ele>
                <time>2005-09-25T00:10:10Z</time>
            </trkpt>
            <trkpt lon="101.397761" lat="14.216596">
                <ele>25.131714</ele>
                <time>2005-09-25T00:10:20Z</time>
            </trkpt>
            <trkpt lon="101.397701" lat="14.216569">
                <ele>25.131714</ele>
                <time>2005-09-25T00:10:32Z</time>
            </trkpt>
            <trkpt lon="101.397667" lat="14.216560">
                <ele>24.651001</ele>
                <time>2005-09-25T00:10:35Z</time>
            </trkpt>
            <trkpt lon="101.397624" lat="14.216522">
                <ele>25.131714</ele>
                <time>2005-09-25T00:10:41Z</time>
            </trkpt>
            <trkpt lon="101.397575" lat="14.216397">
                <ele>25.131714</ele>
                <time>2005-09-25T00:10:51Z</time>
            </trkpt>
            <trkpt lon="101.397517" lat="14.216244">
                <ele>25.131714</ele>
                <time>2005-09-25T00:11:01Z</time>
            </trkpt>
            <trkpt lon="101.397419" lat="14.216175">
                <ele>24.651001</ele>
                <time>2005-09-25T00:11:09Z</time>
            </trkpt>
            <trkpt lon="101.397162" lat="14.216166">
                <ele>24.170288</ele>
                <time>2005-09-25T00:11:20Z</time>
            </trkpt>
            <trkpt lon="101.396995" lat="14.216148">
                <ele>24.170288</ele>
                <time>2005-09-25T00:11:28Z</time>
            </trkpt>
            <trkpt lon="101.396763" lat="14.216111">
                <ele>22.728271</ele>
                <time>2005-09-25T00:11:39Z</time>
            </trkpt>
            <trkpt lon="101.396533" lat="14.216067">
                <ele>23.208984</ele>
                <time>2005-09-25T00:11:50Z</time>
            </trkpt>
            <trkpt lon="101.396375" lat="14.216030">
                <ele>23.689575</ele>
                <time>2005-09-25T00:12:00Z</time>
            </trkpt>
            <trkpt lon="101.396321" lat="14.216020">
                <ele>23.689575</ele>
                <time>2005-09-25T00:12:05Z</time>
            </trkpt>
            <trkpt lon="101.396212" lat="14.215999">
                <ele>23.689575</ele>
                <time>2005-09-25T00:12:14Z</time>
            </trkpt>
            <trkpt lon="101.396134" lat="14.215981">
                <ele>23.208984</ele>
                <time>2005-09-25T00:12:22Z</time>
            </trkpt>
            <trkpt lon="101.396053" lat="14.215988">
                <ele>22.728271</ele>
                <time>2005-09-25T00:12:38Z</time>
            </trkpt>
            <trkpt lon="101.395896" lat="14.215999">
                <ele>21.766968</ele>
                <time>2005-09-25T00:12:48Z</time>
            </trkpt>
            <trkpt lon="101.395747" lat="14.215977">
                <ele>21.766968</ele>
                <time>2005-09-25T00:12:58Z</time>
            </trkpt>
            <trkpt lon="101.395633" lat="14.215926">
                <ele>22.247559</ele>
                <time>2005-09-25T00:13:07Z</time>
            </trkpt>
            <trkpt lon="101.395534" lat="14.215876">
                <ele>21.766968</ele>
                <time>2005-09-25T00:13:14Z</time>
            </trkpt>
            <trkpt lon="101.395398" lat="14.215831">
                <ele>22.728271</ele>
                <time>2005-09-25T00:13:23Z</time>
            </trkpt>
            <trkpt lon="101.395363" lat="14.215823">
                <ele>21.766968</ele>
                <time>2005-09-25T00:13:30Z</time>
            </trkpt>
            <trkpt lon="101.395378" lat="14.215828">
                <ele>22.247559</ele>
                <time>2005-09-25T00:13:46Z</time>
            </trkpt>
            <trkpt lon="101.395408" lat="14.215840">
                <ele>22.247559</ele>
                <time>2005-09-25T00:13:56Z</time>
            </trkpt>
            <trkpt lon="101.395416" lat="14.215842">
                <ele>22.247559</ele>
                <time>2005-09-25T00:13:57Z</time>
            </trkpt>
            <trkpt lon="101.395538" lat="14.215884">
                <ele>22.728271</ele>
                <time>2005-09-25T00:14:07Z</time>
            </trkpt>
            <trkpt lon="101.395683" lat="14.215963">
                <ele>22.247559</ele>
                <time>2005-09-25T00:14:18Z</time>
            </trkpt>
            <trkpt lon="101.395693" lat="14.216045">
                <ele>21.286377</ele>
                <time>2005-09-25T00:14:26Z</time>
            </trkpt>
            <trkpt lon="101.395686" lat="14.216045">
                <ele>21.766968</ele>
                <time>2005-09-25T00:14:34Z</time>
            </trkpt>
            <trkpt lon="101.395686" lat="14.216052">
                <ele>21.286377</ele>
                <time>2005-09-25T00:14:46Z</time>
            </trkpt>
            <trkpt lon="101.395654" lat="14.216083">
                <ele>20.805664</ele>
                <time>2005-09-25T00:14:56Z</time>
            </trkpt>
            <trkpt lon="101.395643" lat="14.216091">
                <ele>20.805664</ele>
                <time>2005-09-25T00:15:04Z</time>
            </trkpt>
            <trkpt lon="101.395642" lat="14.216098">
                <ele>21.286377</ele>
                <time>2005-09-25T00:15:16Z</time>
            </trkpt>
            <trkpt lon="101.395627" lat="14.216104">
                <ele>20.324951</ele>
                <time>2005-09-25T00:15:27Z</time>
            </trkpt>
            <trkpt lon="101.395620" lat="14.216110">
                <ele>20.324951</ele>
                <time>2005-09-25T00:15:35Z</time>
            </trkpt>
            <trkpt lon="101.395613" lat="14.216114">
                <ele>20.805664</ele>
                <time>2005-09-25T00:15:44Z</time>
            </trkpt>
            <trkpt lon="101.395609" lat="14.216125">
                <ele>20.805664</ele>
                <time>2005-09-25T00:15:54Z</time>
            </trkpt>
            <trkpt lon="101.395605" lat="14.216136">
                <ele>20.805664</ele>
                <time>2005-09-25T00:16:04Z</time>
            </trkpt>
            <trkpt lon="101.395597" lat="14.216149">
                <ele>20.324951</ele>
                <time>2005-09-25T00:16:12Z</time>
            </trkpt>
            <trkpt lon="101.395589" lat="14.216163">
                <ele>20.805664</ele>
                <time>2005-09-25T00:16:22Z</time>
            </trkpt>
            <trkpt lon="101.395581" lat="14.216187">
                <ele>21.286377</ele>
                <time>2005-09-25T00:16:32Z</time>
            </trkpt>
            <trkpt lon="101.395564" lat="14.216213">
                <ele>20.805664</ele>
                <time>2005-09-25T00:16:43Z</time>
            </trkpt>
            <trkpt lon="101.395560" lat="14.216224">
                <ele>20.805664</ele>
                <time>2005-09-25T00:16:53Z</time>
            </trkpt>
            <trkpt lon="101.395556" lat="14.216248">
                <ele>21.286377</ele>
                <time>2005-09-25T00:17:08Z</time>
            </trkpt>
            <trkpt lon="101.395533" lat="14.216292">
                <ele>21.766968</ele>
                <time>2005-09-25T00:17:19Z</time>
            </trkpt>
            <trkpt lon="101.395502" lat="14.216357">
                <ele>22.728271</ele>
                <time>2005-09-25T00:17:32Z</time>
            </trkpt>
            <trkpt lon="101.395490" lat="14.216383">
                <ele>22.247559</ele>
                <time>2005-09-25T00:17:44Z</time>
            </trkpt>
            <trkpt lon="101.395477" lat="14.216479">
                <ele>23.689575</ele>
                <time>2005-09-25T00:17:57Z</time>
            </trkpt>
            <trkpt lon="101.395459" lat="14.216542">
                <ele>25.131714</ele>
                <time>2005-09-25T00:18:10Z</time>
            </trkpt>
            <trkpt lon="101.395466" lat="14.216603">
                <ele>24.170288</ele>
                <time>2005-09-25T00:18:24Z</time>
            </trkpt>
            <trkpt lon="101.395471" lat="14.216738">
                <ele>24.651001</ele>
                <time>2005-09-25T00:18:32Z</time>
            </trkpt>
            <trkpt lon="101.395482" lat="14.216904">
                <ele>24.651001</ele>
                <time>2005-09-25T00:18:40Z</time>
            </trkpt>
            <trkpt lon="101.395525" lat="14.217161">
                <ele>24.170288</ele>
                <time>2005-09-25T00:18:50Z</time>
            </trkpt>
            <trkpt lon="101.395565" lat="14.217403">
                <ele>24.651001</ele>
                <time>2005-09-25T00:18:59Z</time>
            </trkpt>
            <trkpt lon="101.395583" lat="14.217585">
                <ele>25.131714</ele>
                <time>2005-09-25T00:19:07Z</time>
            </trkpt>
            <trkpt lon="101.395574" lat="14.217823">
                <ele>25.612305</ele>
                <time>2005-09-25T00:19:16Z</time>
            </trkpt>
            <trkpt lon="101.395629" lat="14.217965">
                <ele>25.612305</ele>
                <time>2005-09-25T00:19:24Z</time>
            </trkpt>
            <trkpt lon="101.395671" lat="14.218063">
                <ele>25.131714</ele>
                <time>2005-09-25T00:19:32Z</time>
            </trkpt>
            <trkpt lon="101.395739" lat="14.218071">
                <ele>25.131714</ele>
                <time>2005-09-25T00:19:37Z</time>
            </trkpt>
            <trkpt lon="101.395898" lat="14.218034">
                <ele>25.131714</ele>
                <time>2005-09-25T00:19:46Z</time>
            </trkpt>
            <trkpt lon="101.396029" lat="14.218008">
                <ele>25.612305</ele>
                <time>2005-09-25T00:19:53Z</time>
            </trkpt>
            <trkpt lon="101.396207" lat="14.217984">
                <ele>25.131714</ele>
                <time>2005-09-25T00:20:02Z</time>
            </trkpt>
            <trkpt lon="101.396405" lat="14.217979">
                <ele>25.612305</ele>
                <time>2005-09-25T00:20:12Z</time>
            </trkpt>
            <trkpt lon="101.396604" lat="14.217993">
                <ele>26.092896</ele>
                <time>2005-09-25T00:20:21Z</time>
            </trkpt>
            <trkpt lon="101.396746" lat="14.218002">
                <ele>25.612305</ele>
                <time>2005-09-25T00:20:28Z</time>
            </trkpt>
            <trkpt lon="101.396867" lat="14.218005">
                <ele>26.092896</ele>
                <time>2005-09-25T00:20:35Z</time>
            </trkpt>
            <trkpt lon="101.397065" lat="14.218020">
                <ele>26.573608</ele>
                <time>2005-09-25T00:20:46Z</time>
            </trkpt>
            <trkpt lon="101.397219" lat="14.218027">
                <ele>26.573608</ele>
                <time>2005-09-25T00:20:54Z</time>
            </trkpt>
            <trkpt lon="101.397356" lat="14.218048">
                <ele>27.054321</ele>
                <time>2005-09-25T00:21:03Z</time>
            </trkpt>
            <trkpt lon="101.397358" lat="14.218063">
                <ele>26.092896</ele>
                <time>2005-09-25T00:21:24Z</time>
            </trkpt>
            <trkpt lon="101.397375" lat="14.218109">
                <ele>26.092896</ele>
                <time>2005-09-25T00:21:28Z</time>
            </trkpt>
            <trkpt lon="101.397409" lat="14.218224">
                <ele>27.054321</ele>
                <time>2005-09-25T00:21:36Z</time>
            </trkpt>
            <trkpt lon="101.397433" lat="14.218363">
                <ele>26.573608</ele>
                <time>2005-09-25T00:21:42Z</time>
            </trkpt>
            <trkpt lon="101.397484" lat="14.218585">
                <ele>26.092896</ele>
                <time>2005-09-25T00:21:51Z</time>
            </trkpt>
            <trkpt lon="101.397543" lat="14.218827">
                <ele>27.054321</ele>
                <time>2005-09-25T00:22:00Z</time>
            </trkpt>
            <trkpt lon="101.397578" lat="14.219050">
                <ele>28.015503</ele>
                <time>2005-09-25T00:22:10Z</time>
            </trkpt>
            <trkpt lon="101.397573" lat="14.219177">
                <ele>30.418823</ele>
                <time>2005-09-25T00:22:18Z</time>
            </trkpt>
            <trkpt lon="101.397605" lat="14.219267">
                <ele>30.418823</ele>
                <time>2005-09-25T00:22:25Z</time>
            </trkpt>
            <trkpt lon="101.397717" lat="14.219363">
                <ele>30.899536</ele>
                <time>2005-09-25T00:22:33Z</time>
            </trkpt>
            <trkpt lon="101.397871" lat="14.219494">
                <ele>32.822266</ele>
                <time>2005-09-25T00:22:43Z</time>
            </trkpt>
            <trkpt lon="101.398043" lat="14.219658">
                <ele>33.783447</ele>
                <time>2005-09-25T00:22:54Z</time>
            </trkpt>
            <trkpt lon="101.398179" lat="14.219844">
                <ele>34.264160</ele>
                <time>2005-09-25T00:23:05Z</time>
            </trkpt>
            <trkpt lon="101.398246" lat="14.219948">
                <ele>35.225464</ele>
                <time>2005-09-25T00:23:14Z</time>
            </trkpt>
            <trkpt lon="101.398232" lat="14.220012">
                <ele>34.744873</ele>
                <time>2005-09-25T00:23:18Z</time>
            </trkpt>
            <trkpt lon="101.398156" lat="14.220004">
                <ele>35.706055</ele>
                <time>2005-09-25T00:23:24Z</time>
            </trkpt>
            <trkpt lon="101.398003" lat="14.220011">
                <ele>37.628662</ele>
                <time>2005-09-25T00:23:34Z</time>
            </trkpt>
            <trkpt lon="101.397812" lat="14.220006">
                <ele>38.590088</ele>
                <time>2005-09-25T00:23:44Z</time>
            </trkpt>
            <trkpt lon="101.397587" lat="14.219979">
                <ele>39.551270</ele>
                <time>2005-09-25T00:23:57Z</time>
            </trkpt>
            <trkpt lon="101.397562" lat="14.219947">
                <ele>39.551270</ele>
                <time>2005-09-25T00:24:04Z</time>
            </trkpt>
            <trkpt lon="101.397553" lat="14.219947">
                <ele>39.551270</ele>
                <time>2005-09-25T00:24:18Z</time>
            </trkpt>
            <trkpt lon="101.397539" lat="14.219952">
                <ele>40.032104</ele>
                <time>2005-09-25T00:24:49Z</time>
            </trkpt>
            <trkpt lon="101.397534" lat="14.219958">
                <ele>40.032104</ele>
                <time>2005-09-25T00:25:00Z</time>
            </trkpt>
            <trkpt lon="101.397551" lat="14.219969">
                <ele>40.512817</ele>
                <time>2005-09-25T00:29:32Z</time>
            </trkpt>
            <trkpt lon="101.397552" lat="14.219994">
                <ele>40.032104</ele>
                <time>2005-09-25T00:29:40Z</time>
            </trkpt>
            <trkpt lon="101.397597" lat="14.220011">
                <ele>40.032104</ele>
                <time>2005-09-25T00:29:44Z</time>
            </trkpt>
            <trkpt lon="101.397777" lat="14.220002">
                <ele>38.590088</ele>
                <time>2005-09-25T00:29:53Z</time>
            </trkpt>
            <trkpt lon="101.397953" lat="14.219995">
                <ele>37.148071</ele>
                <time>2005-09-25T00:30:01Z</time>
            </trkpt>
            <trkpt lon="101.398187" lat="14.220012">
                <ele>35.706055</ele>
                <time>2005-09-25T00:30:11Z</time>
            </trkpt>
            <trkpt lon="101.398209" lat="14.220011">
                <ele>35.225464</ele>
                <time>2005-09-25T00:30:12Z</time>
            </trkpt>
            <trkpt lon="101.398223" lat="14.219937">
                <ele>35.225464</ele>
                <time>2005-09-25T00:30:17Z</time>
            </trkpt>
            <trkpt lon="101.398217" lat="14.219925">
                <ele>34.744873</ele>
                <time>2005-09-25T00:30:18Z</time>
            </trkpt>
            <trkpt lon="101.398168" lat="14.219847">
                <ele>34.264160</ele>
                <time>2005-09-25T00:30:25Z</time>
            </trkpt>
            <trkpt lon="101.398218" lat="14.219864">
                <ele>34.264160</ele>
                <time>2005-09-25T00:30:30Z</time>
            </trkpt>
            <trkpt lon="101.398224" lat="14.219879">
                <ele>34.264160</ele>
                <time>2005-09-25T00:30:31Z</time>
            </trkpt>
            <trkpt lon="101.398305" lat="14.220033">
                <ele>34.744873</ele>
                <time>2005-09-25T00:30:42Z</time>
            </trkpt>
            <trkpt lon="101.398426" lat="14.220145">
                <ele>34.264160</ele>
                <time>2005-09-25T00:30:50Z</time>
            </trkpt>
            <trkpt lon="101.398545" lat="14.220180">
                <ele>33.783447</ele>
                <time>2005-09-25T00:30:56Z</time>
            </trkpt>
            <trkpt lon="101.398616" lat="14.220203">
                <ele>33.783447</ele>
                <time>2005-09-25T00:31:00Z</time>
            </trkpt>
            <trkpt lon="101.398641" lat="14.220262">
                <ele>33.302856</ele>
                <time>2005-09-25T00:31:06Z</time>
            </trkpt>
            <trkpt lon="101.398648" lat="14.220365">
                <ele>33.302856</ele>
                <time>2005-09-25T00:31:15Z</time>
            </trkpt>
            <trkpt lon="101.398648" lat="14.220446">
                <ele>33.302856</ele>
                <time>2005-09-25T00:31:32Z</time>
            </trkpt>
            <trkpt lon="101.398626" lat="14.220665">
                <ele>33.302856</ele>
                <time>2005-09-25T00:31:44Z</time>
            </trkpt>
            <trkpt lon="101.398630" lat="14.220883">
                <ele>33.302856</ele>
                <time>2005-09-25T00:31:55Z</time>
            </trkpt>
            <trkpt lon="101.398624" lat="14.221039">
                <ele>32.822266</ele>
                <time>2005-09-25T00:32:04Z</time>
            </trkpt>
            <trkpt lon="101.398598" lat="14.221274">
                <ele>33.302856</ele>
                <time>2005-09-25T00:32:13Z</time>
            </trkpt>
            <trkpt lon="101.398591" lat="14.221423">
                <ele>33.302856</ele>
                <time>2005-09-25T00:32:20Z</time>
            </trkpt>
            <trkpt lon="101.398578" lat="14.221567">
                <ele>32.822266</ele>
                <time>2005-09-25T00:32:28Z</time>
            </trkpt>
            <trkpt lon="101.398559" lat="14.221652">
                <ele>33.783447</ele>
                <time>2005-09-25T00:32:36Z</time>
            </trkpt>
            <trkpt lon="101.398559" lat="14.221652">
                <ele>27.054321</ele>
                <time>2005-09-25T00:32:38Z</time>
            </trkpt>
            <trkpt lon="101.398559" lat="14.221652">
                <ele>38.109375</ele>
                <time>2005-09-25T00:32:39Z</time>
            </trkpt>
            <trkpt lon="101.398559" lat="14.221652">
                <ele>32.822266</ele>
                <time>2005-09-25T00:32:40Z</time>
            </trkpt>
            <trkpt lon="101.398564" lat="14.221698">
                <ele>33.302856</ele>
                <time>2005-09-25T00:32:48Z</time>
            </trkpt>
            <trkpt lon="101.398560" lat="14.221710">
                <ele>32.822266</ele>
                <time>2005-09-25T00:32:55Z</time>
            </trkpt>
            <trkpt lon="101.398563" lat="14.221712">
                <ele>33.302856</ele>
                <time>2005-09-25T00:33:05Z</time>
            </trkpt>
            <trkpt lon="101.398557" lat="14.221710">
                <ele>33.302856</ele>
                <time>2005-09-25T00:33:10Z</time>
            </trkpt>
            <trkpt lon="101.398533" lat="14.221730">
                <ele>33.783447</ele>
                <time>2005-09-25T00:33:23Z</time>
            </trkpt>
            <trkpt lon="101.398543" lat="14.221728">
                <ele>33.783447</ele>
                <time>2005-09-25T00:33:36Z</time>
            </trkpt>
            <trkpt lon="101.398542" lat="14.221727">
                <ele>33.302856</ele>
                <time>2005-09-25T00:33:37Z</time>
            </trkpt>
            <trkpt lon="101.398416" lat="14.221783">
                <ele>33.783447</ele>
                <time>2005-09-25T00:33:46Z</time>
            </trkpt>
            <trkpt lon="101.398290" lat="14.221831">
                <ele>34.744873</ele>
                <time>2005-09-25T00:33:55Z</time>
            </trkpt>
            <trkpt lon="101.398243" lat="14.221873">
                <ele>34.744873</ele>
                <time>2005-09-25T00:33:59Z</time>
            </trkpt>
            <trkpt lon="101.398209" lat="14.222023">
                <ele>34.744873</ele>
                <time>2005-09-25T00:34:09Z</time>
            </trkpt>
            <trkpt lon="101.398235" lat="14.222062">
                <ele>35.225464</ele>
                <time>2005-09-25T00:34:14Z</time>
            </trkpt>
            <trkpt lon="101.398217" lat="14.222135">
                <ele>35.225464</ele>
                <time>2005-09-25T00:34:20Z</time>
            </trkpt>
            <trkpt lon="101.398102" lat="14.222265">
                <ele>35.225464</ele>
                <time>2005-09-25T00:34:30Z</time>
            </trkpt>
            <trkpt lon="101.398015" lat="14.222408">
                <ele>34.744873</ele>
                <time>2005-09-25T00:34:40Z</time>
            </trkpt>
            <trkpt lon="101.397911" lat="14.222589">
                <ele>34.744873</ele>
                <time>2005-09-25T00:34:49Z</time>
            </trkpt>
            <trkpt lon="101.397789" lat="14.222775">
                <ele>34.264160</ele>
                <time>2005-09-25T00:34:59Z</time>
            </trkpt>
            <trkpt lon="101.397683" lat="14.222984">
                <ele>34.264160</ele>
                <time>2005-09-25T00:35:08Z</time>
            </trkpt>
            <trkpt lon="101.397527" lat="14.223187">
                <ele>33.302856</ele>
                <time>2005-09-25T00:35:18Z</time>
            </trkpt>
            <trkpt lon="101.397366" lat="14.223308">
                <ele>32.341553</ele>
                <time>2005-09-25T00:35:28Z</time>
            </trkpt>
            <trkpt lon="101.397064" lat="14.223383">
                <ele>32.341553</ele>
                <time>2005-09-25T00:35:40Z</time>
            </trkpt>
            <trkpt lon="101.396881" lat="14.223475">
                <ele>29.938110</ele>
                <time>2005-09-25T00:35:48Z</time>
            </trkpt>
            <trkpt lon="101.396657" lat="14.223678">
                <ele>28.496216</ele>
                <time>2005-09-25T00:35:59Z</time>
            </trkpt>
            <trkpt lon="101.396465" lat="14.223883">
                <ele>28.496216</ele>
                <time>2005-09-25T00:36:09Z</time>
            </trkpt>
            <trkpt lon="101.396407" lat="14.223936">
                <ele>28.015503</ele>
                <time>2005-09-25T00:36:13Z</time>
            </trkpt>
            <trkpt lon="101.396356" lat="14.223909">
                <ele>27.534912</ele>
                <time>2005-09-25T00:36:18Z</time>
            </trkpt>
            <trkpt lon="101.396257" lat="14.223799">
                <ele>27.054321</ele>
                <time>2005-09-25T00:36:27Z</time>
            </trkpt>
            <trkpt lon="101.396098" lat="14.223608">
                <ele>27.054321</ele>
                <time>2005-09-25T00:36:35Z</time>
            </trkpt>
            <trkpt lon="101.395929" lat="14.223380">
                <ele>27.054321</ele>
                <time>2005-09-25T00:36:45Z</time>
            </trkpt>
            <trkpt lon="101.395699" lat="14.223091">
                <ele>26.573608</ele>
                <time>2005-09-25T00:36:54Z</time>
            </trkpt>
            <trkpt lon="101.395447" lat="14.222727">
                <ele>25.612305</ele>
                <time>2005-09-25T00:37:04Z</time>
            </trkpt>
            <trkpt lon="101.395131" lat="14.222290">
                <ele>23.208984</ele>
                <time>2005-09-25T00:37:15Z</time>
            </trkpt>
            <trkpt lon="101.394949" lat="14.222043">
                <ele>24.651001</ele>
                <time>2005-09-25T00:37:23Z</time>
            </trkpt>
            <trkpt lon="101.394946" lat="14.222043">
                <ele>24.651001</ele>
                <time>2005-09-25T00:37:32Z</time>
            </trkpt>
            <trkpt lon="101.394896" lat="14.221986">
                <ele>24.651001</ele>
                <time>2005-09-25T00:37:39Z</time>
            </trkpt>
            <trkpt lon="101.394876" lat="14.221970">
                <ele>24.170288</ele>
                <time>2005-09-25T00:37:46Z</time>
            </trkpt>
            <trkpt lon="101.394878" lat="14.221967">
                <ele>23.689575</ele>
                <time>2005-09-25T00:38:07Z</time>
            </trkpt>
            <trkpt lon="101.394832" lat="14.221904">
                <ele>24.170288</ele>
                <time>2005-09-25T00:38:26Z</time>
            </trkpt>
            <trkpt lon="101.394726" lat="14.221719">
                <ele>23.208984</ele>
                <time>2005-09-25T00:38:35Z</time>
            </trkpt>
            <trkpt lon="101.394543" lat="14.221330">
                <ele>22.728271</ele>
                <time>2005-09-25T00:38:47Z</time>
            </trkpt>
            <trkpt lon="101.394404" lat="14.221005">
                <ele>22.247559</ele>
                <time>2005-09-25T00:38:56Z</time>
            </trkpt>
            <trkpt lon="101.394267" lat="14.220638">
                <ele>22.728271</ele>
                <time>2005-09-25T00:39:06Z</time>
            </trkpt>
            <trkpt lon="101.394124" lat="14.220262">
                <ele>22.728271</ele>
                <time>2005-09-25T00:39:17Z</time>
            </trkpt>
            <trkpt lon="101.394063" lat="14.220058">
                <ele>23.208984</ele>
                <time>2005-09-25T00:39:25Z</time>
            </trkpt>
            <trkpt lon="101.393996" lat="14.219935">
                <ele>23.208984</ele>
                <time>2005-09-25T00:39:33Z</time>
            </trkpt>
            <trkpt lon="101.393948" lat="14.219728">
                <ele>22.728271</ele>
                <time>2005-09-25T00:39:40Z</time>
            </trkpt>
            <trkpt lon="101.393953" lat="14.219489">
                <ele>22.728271</ele>
                <time>2005-09-25T00:39:48Z</time>
            </trkpt>
            <trkpt lon="101.393972" lat="14.219143">
                <ele>23.208984</ele>
                <time>2005-09-25T00:40:00Z</time>
            </trkpt>
            <trkpt lon="101.393920" lat="14.218833">
                <ele>23.208984</ele>
                <time>2005-09-25T00:40:11Z</time>
            </trkpt>
            <trkpt lon="101.393754" lat="14.218460">
                <ele>22.728271</ele>
                <time>2005-09-25T00:40:23Z</time>
            </trkpt>
            <trkpt lon="101.393592" lat="14.218244">
                <ele>23.208984</ele>
                <time>2005-09-25T00:40:32Z</time>
            </trkpt>
            <trkpt lon="101.393379" lat="14.218113">
                <ele>22.247559</ele>
                <time>2005-09-25T00:40:40Z</time>
            </trkpt>
            <trkpt lon="101.392964" lat="14.217933">
                <ele>23.208984</ele>
                <time>2005-09-25T00:40:52Z</time>
            </trkpt>
            <trkpt lon="101.392701" lat="14.217887">
                <ele>22.728271</ele>
                <time>2005-09-25T00:41:01Z</time>
            </trkpt>
            <trkpt lon="101.392553" lat="14.217876">
                <ele>23.208984</ele>
                <time>2005-09-25T00:41:09Z</time>
            </trkpt>
            <trkpt lon="101.392516" lat="14.217837">
                <ele>23.689575</ele>
                <time>2005-09-25T00:41:16Z</time>
            </trkpt>
            <trkpt lon="101.392523" lat="14.217828">
                <ele>23.208984</ele>
                <time>2005-09-25T00:41:29Z</time>
            </trkpt>
            <trkpt lon="101.392496" lat="14.217602">
                <ele>22.728271</ele>
                <time>2005-09-25T00:41:40Z</time>
            </trkpt>
            <trkpt lon="101.392516" lat="14.217466">
                <ele>22.247559</ele>
                <time>2005-09-25T00:41:49Z</time>
            </trkpt>
            <trkpt lon="101.392576" lat="14.217377">
                <ele>21.766968</ele>
                <time>2005-09-25T00:41:57Z</time>
            </trkpt>
            <trkpt lon="101.392576" lat="14.217238">
                <ele>21.766968</ele>
                <time>2005-09-25T00:42:06Z</time>
            </trkpt>
            <trkpt lon="101.392584" lat="14.217134">
                <ele>21.766968</ele>
                <time>2005-09-25T00:42:13Z</time>
            </trkpt>
            <trkpt lon="101.392595" lat="14.217107">
                <ele>22.247559</ele>
                <time>2005-09-25T00:42:22Z</time>
            </trkpt>
            <trkpt lon="101.392617" lat="14.217079">
                <ele>22.728271</ele>
                <time>2005-09-25T00:42:49Z</time>
            </trkpt>
            <trkpt lon="101.392624" lat="14.217028">
                <ele>21.766968</ele>
                <time>2005-09-25T00:43:01Z</time>
            </trkpt>
            <trkpt lon="101.392639" lat="14.217006">
                <ele>22.247559</ele>
                <time>2005-09-25T00:43:10Z</time>
            </trkpt>
            <trkpt lon="101.392645" lat="14.216991">
                <ele>22.247559</ele>
                <time>2005-09-25T00:43:18Z</time>
            </trkpt>
            <trkpt lon="101.392645" lat="14.216973">
                <ele>22.247559</ele>
                <time>2005-09-25T00:43:25Z</time>
            </trkpt>
            <trkpt lon="101.392659" lat="14.216941">
                <ele>22.247559</ele>
                <time>2005-09-25T00:43:33Z</time>
            </trkpt>
            <trkpt lon="101.392664" lat="14.216929">
                <ele>22.247559</ele>
                <time>2005-09-25T00:43:44Z</time>
            </trkpt>
            <trkpt lon="101.392667" lat="14.216907">
                <ele>22.247559</ele>
                <time>2005-09-25T00:43:51Z</time>
            </trkpt>
            <trkpt lon="101.392665" lat="14.216888">
                <ele>22.247559</ele>
                <time>2005-09-25T00:44:00Z</time>
            </trkpt>
            <trkpt lon="101.392639" lat="14.216873">
                <ele>22.247559</ele>
                <time>2005-09-25T00:44:08Z</time>
            </trkpt>
            <trkpt lon="101.392616" lat="14.216854">
                <ele>22.728271</ele>
                <time>2005-09-25T00:44:18Z</time>
            </trkpt>
            <trkpt lon="101.392600" lat="14.216812">
                <ele>22.247559</ele>
                <time>2005-09-25T00:44:25Z</time>
            </trkpt>
            <trkpt lon="101.392616" lat="14.216774">
                <ele>22.728271</ele>
                <time>2005-09-25T00:44:38Z</time>
            </trkpt>
            <trkpt lon="101.392627" lat="14.216730">
                <ele>22.247559</ele>
                <time>2005-09-25T00:44:48Z</time>
            </trkpt>
            <trkpt lon="101.392626" lat="14.216699">
                <ele>22.728271</ele>
                <time>2005-09-25T00:44:59Z</time>
            </trkpt>
            <trkpt lon="101.392613" lat="14.216685">
                <ele>21.766968</ele>
                <time>2005-09-25T00:45:08Z</time>
            </trkpt>
            <trkpt lon="101.392608" lat="14.216673">
                <ele>21.766968</ele>
                <time>2005-09-25T00:45:11Z</time>
            </trkpt>
            <trkpt lon="101.392549" lat="14.216543">
                <ele>22.728271</ele>
                <time>2005-09-25T00:45:22Z</time>
            </trkpt>
            <trkpt lon="101.392525" lat="14.216492">
                <ele>22.728271</ele>
                <time>2005-09-25T00:45:31Z</time>
            </trkpt>
            <trkpt lon="101.392515" lat="14.216454">
                <ele>22.728271</ele>
                <time>2005-09-25T00:45:42Z</time>
            </trkpt>
            <trkpt lon="101.392505" lat="14.216435">
                <ele>22.247559</ele>
                <time>2005-09-25T00:45:50Z</time>
            </trkpt>
            <trkpt lon="101.392507" lat="14.216425">
                <ele>22.728271</ele>
                <time>2005-09-25T00:45:51Z</time>
            </trkpt>
            <trkpt lon="101.392510" lat="14.216405">
                <ele>22.247559</ele>
                <time>2005-09-25T00:46:00Z</time>
            </trkpt>
            <trkpt lon="101.392516" lat="14.216363">
                <ele>23.208984</ele>
                <time>2005-09-25T00:46:12Z</time>
            </trkpt>
            <trkpt lon="101.392517" lat="14.216345">
                <ele>22.728271</ele>
                <time>2005-09-25T00:46:21Z</time>
            </trkpt>
            <trkpt lon="101.392521" lat="14.216320">
                <ele>22.728271</ele>
                <time>2005-09-25T00:46:34Z</time>
            </trkpt>
            <trkpt lon="101.392547" lat="14.216229">
                <ele>23.208984</ele>
                <time>2005-09-25T00:46:45Z</time>
            </trkpt>
            <trkpt lon="101.392578" lat="14.216126">
                <ele>22.728271</ele>
                <time>2005-09-25T00:46:55Z</time>
            </trkpt>
            <trkpt lon="101.392533" lat="14.216041">
                <ele>22.247559</ele>
                <time>2005-09-25T00:47:04Z</time>
            </trkpt>
            <trkpt lon="101.392543" lat="14.215966">
                <ele>21.766968</ele>
                <time>2005-09-25T00:47:09Z</time>
            </trkpt>
            <trkpt lon="101.392573" lat="14.215916">
                <ele>21.766968</ele>
                <time>2005-09-25T00:47:14Z</time>
            </trkpt>
            <trkpt lon="101.392609" lat="14.215884">
                <ele>21.286377</ele>
                <time>2005-09-25T00:47:18Z</time>
            </trkpt>
            <trkpt lon="101.392627" lat="14.215819">
                <ele>21.286377</ele>
                <time>2005-09-25T00:47:23Z</time>
            </trkpt>
            <trkpt lon="101.392761" lat="14.215731">
                <ele>20.805664</ele>
                <time>2005-09-25T00:47:32Z</time>
            </trkpt>
            <trkpt lon="101.392820" lat="14.215603">
                <ele>21.286377</ele>
                <time>2005-09-25T00:47:41Z</time>
            </trkpt>
            <trkpt lon="101.392794" lat="14.215463">
                <ele>21.766968</ele>
                <time>2005-09-25T00:47:49Z</time>
            </trkpt>
            <trkpt lon="101.392678" lat="14.215342">
                <ele>22.247559</ele>
                <time>2005-09-25T00:48:01Z</time>
            </trkpt>
            <trkpt lon="101.392572" lat="14.215274">
                <ele>22.247559</ele>
                <time>2005-09-25T00:48:10Z</time>
            </trkpt>
            <trkpt lon="101.392409" lat="14.215178">
                <ele>22.247559</ele>
                <time>2005-09-25T00:48:19Z</time>
            </trkpt>
            <trkpt lon="101.392340" lat="14.214962">
                <ele>22.247559</ele>
                <time>2005-09-25T00:48:29Z</time>
            </trkpt>
            <trkpt lon="101.392336" lat="14.214940">
                <ele>21.766968</ele>
                <time>2005-09-25T00:48:35Z</time>
            </trkpt>
            <trkpt lon="101.392334" lat="14.214919">
                <ele>21.766968</ele>
                <time>2005-09-25T00:48:43Z</time>
            </trkpt>
            <trkpt lon="101.392320" lat="14.214901">
                <ele>22.247559</ele>
                <time>2005-09-25T00:48:53Z</time>
            </trkpt>
            <trkpt lon="101.392171" lat="14.214862">
                <ele>21.286377</ele>
                <time>2005-09-25T00:49:01Z</time>
            </trkpt>
            <trkpt lon="101.391953" lat="14.214889">
                <ele>20.805664</ele>
                <time>2005-09-25T00:49:09Z</time>
            </trkpt>
            <trkpt lon="101.391647" lat="14.214988">
                <ele>20.805664</ele>
                <time>2005-09-25T00:49:21Z</time>
            </trkpt>
            <trkpt lon="101.391434" lat="14.215159">
                <ele>19.844360</ele>
                <time>2005-09-25T00:49:30Z</time>
            </trkpt>
            <trkpt lon="101.391153" lat="14.215508">
                <ele>19.363770</ele>
                <time>2005-09-25T00:49:44Z</time>
            </trkpt>
            <trkpt lon="101.390921" lat="14.215762">
                <ele>19.844360</ele>
                <time>2005-09-25T00:49:56Z</time>
            </trkpt>
            <trkpt lon="101.390807" lat="14.215891">
                <ele>21.286377</ele>
                <time>2005-09-25T00:50:05Z</time>
            </trkpt>
            <trkpt lon="101.390875" lat="14.216056">
                <ele>20.324951</ele>
                <time>2005-09-25T00:50:14Z</time>
            </trkpt>
            <trkpt lon="101.391012" lat="14.216295">
                <ele>21.286377</ele>
                <time>2005-09-25T00:50:24Z</time>
            </trkpt>
            <trkpt lon="101.391180" lat="14.216587">
                <ele>22.728271</ele>
                <time>2005-09-25T00:50:36Z</time>
            </trkpt>
            <trkpt lon="101.391290" lat="14.216776">
                <ele>21.766968</ele>
                <time>2005-09-25T00:50:45Z</time>
            </trkpt>
            <trkpt lon="101.391402" lat="14.217023">
                <ele>22.247559</ele>
                <time>2005-09-25T00:50:53Z</time>
            </trkpt>
            <trkpt lon="101.391496" lat="14.217355">
                <ele>22.247559</ele>
                <time>2005-09-25T00:51:04Z</time>
            </trkpt>
            <trkpt lon="101.391547" lat="14.217635">
                <ele>22.728271</ele>
                <time>2005-09-25T00:51:17Z</time>
            </trkpt>
            <trkpt lon="101.391569" lat="14.217697">
                <ele>23.689575</ele>
                <time>2005-09-25T00:51:25Z</time>
            </trkpt>
            <trkpt lon="101.391583" lat="14.217701">
                <ele>23.208984</ele>
                <time>2005-09-25T00:51:34Z</time>
            </trkpt>
            <trkpt lon="101.391583" lat="14.217695">
                <ele>26.092896</ele>
                <time>2005-09-25T00:51:48Z</time>
            </trkpt>
            <trkpt lon="101.391578" lat="14.217681">
                <ele>22.728271</ele>
                <time>2005-09-25T00:52:01Z</time>
            </trkpt>
            <trkpt lon="101.391531" lat="14.217642">
                <ele>23.208984</ele>
                <time>2005-09-25T00:53:49Z</time>
            </trkpt>
            <trkpt lon="101.391498" lat="14.217499">
                <ele>23.208984</ele>
                <time>2005-09-25T00:53:56Z</time>
            </trkpt>
            <trkpt lon="101.391439" lat="14.217177">
                <ele>22.728271</ele>
                <time>2005-09-25T00:54:07Z</time>
            </trkpt>
            <trkpt lon="101.391272" lat="14.216745">
                <ele>22.247559</ele>
                <time>2005-09-25T00:54:19Z</time>
            </trkpt>
            <trkpt lon="101.391055" lat="14.216373">
                <ele>21.286377</ele>
                <time>2005-09-25T00:54:30Z</time>
            </trkpt>
            <trkpt lon="101.390877" lat="14.216012">
                <ele>19.844360</ele>
                <time>2005-09-25T00:54:40Z</time>
            </trkpt>
            <trkpt lon="101.390811" lat="14.215831">
                <ele>19.363770</ele>
                <time>2005-09-25T00:54:47Z</time>
            </trkpt>
            <trkpt lon="101.390803" lat="14.215823">
                <ele>19.363770</ele>
                <time>2005-09-25T00:54:53Z</time>
            </trkpt>
            <trkpt lon="101.390779" lat="14.215842">
                <ele>20.805664</ele>
                <time>2005-09-25T00:57:38Z</time>
            </trkpt>
            <trkpt lon="101.390739" lat="14.215752">
                <ele>20.805664</ele>
                <time>2005-09-25T00:57:42Z</time>
            </trkpt>
            <trkpt lon="101.390697" lat="14.215515">
                <ele>21.286377</ele>
                <time>2005-09-25T00:57:50Z</time>
            </trkpt>
            <trkpt lon="101.390721" lat="14.215363">
                <ele>21.286377</ele>
                <time>2005-09-25T00:57:55Z</time>
            </trkpt>
            <trkpt lon="101.390859" lat="14.215078">
                <ele>21.286377</ele>
                <time>2005-09-25T00:58:02Z</time>
            </trkpt>
            <trkpt lon="101.390884" lat="14.215038">
                <ele>21.286377</ele>
                <time>2005-09-25T00:58:03Z</time>
            </trkpt>
            <trkpt lon="101.391134" lat="14.214703">
                <ele>22.728271</ele>
                <time>2005-09-25T00:58:14Z</time>
            </trkpt>
            <trkpt lon="101.391342" lat="14.214344">
                <ele>25.612305</ele>
                <time>2005-09-25T00:58:24Z</time>
            </trkpt>
            <trkpt lon="101.391489" lat="14.213946">
                <ele>28.976929</ele>
                <time>2005-09-25T00:58:35Z</time>
            </trkpt>
            <trkpt lon="101.391512" lat="14.213875">
                <ele>30.418823</ele>
                <time>2005-09-25T00:58:37Z</time>
            </trkpt>
            <trkpt lon="101.391539" lat="14.213756">
                <ele>31.380127</ele>
                <time>2005-09-25T00:58:40Z</time>
            </trkpt>
            <trkpt lon="101.391509" lat="14.213540">
                <ele>33.302856</ele>
                <time>2005-09-25T00:58:45Z</time>
            </trkpt>
            <trkpt lon="101.391459" lat="14.213419">
                <ele>33.302856</ele>
                <time>2005-09-25T00:58:48Z</time>
            </trkpt>
            <trkpt lon="101.391168" lat="14.213098">
                <ele>33.783447</ele>
                <time>2005-09-25T00:58:58Z</time>
            </trkpt>
            <trkpt lon="101.390822" lat="14.212667">
                <ele>32.822266</ele>
                <time>2005-09-25T00:59:09Z</time>
            </trkpt>
            <trkpt lon="101.390336" lat="14.212064">
                <ele>33.302856</ele>
                <time>2005-09-25T00:59:23Z</time>
            </trkpt>
            <trkpt lon="101.389892" lat="14.211495">
                <ele>30.418823</ele>
                <time>2005-09-25T00:59:36Z</time>
            </trkpt>
            <trkpt lon="101.389867" lat="14.211459">
                <ele>30.899536</ele>
                <time>2005-09-25T00:59:37Z</time>
            </trkpt>
            <trkpt lon="101.389831" lat="14.211412">
                <ele>30.899536</ele>
                <time>2005-09-25T00:59:41Z</time>
            </trkpt>
            <trkpt lon="101.389731" lat="14.211280">
                <ele>31.860718</ele>
                <time>2005-09-25T00:59:46Z</time>
            </trkpt>
            <trkpt lon="101.389374" lat="14.210955">
                <ele>30.899536</ele>
                <time>2005-09-25T00:59:55Z</time>
            </trkpt>
            <trkpt lon="101.389001" lat="14.210601">
                <ele>29.457520</ele>
                <time>2005-09-25T01:00:05Z</time>
            </trkpt>
            <trkpt lon="101.388696" lat="14.210211">
                <ele>30.899536</ele>
                <time>2005-09-25T01:00:16Z</time>
            </trkpt>
            <trkpt lon="101.388495" lat="14.209787">
                <ele>31.380127</ele>
                <time>2005-09-25T01:00:25Z</time>
            </trkpt>
            <trkpt lon="101.388150" lat="14.209139">
                <ele>30.418823</ele>
                <time>2005-09-25T01:00:39Z</time>
            </trkpt>
            <trkpt lon="101.388049" lat="14.208951">
                <ele>29.938110</ele>
                <time>2005-09-25T01:00:43Z</time>
            </trkpt>
            <trkpt lon="101.387865" lat="14.208770">
                <ele>29.938110</ele>
                <time>2005-09-25T01:00:48Z</time>
            </trkpt>
            <trkpt lon="101.387703" lat="14.208651">
                <ele>29.457520</ele>
                <time>2005-09-25T01:00:52Z</time>
            </trkpt>
            <trkpt lon="101.387586" lat="14.208511">
                <ele>28.976929</ele>
                <time>2005-09-25T01:00:56Z</time>
            </trkpt>
            <trkpt lon="101.387440" lat="14.208091">
                <ele>28.496216</ele>
                <time>2005-09-25T01:01:07Z</time>
            </trkpt>
            <trkpt lon="101.387412" lat="14.208031">
                <ele>28.496216</ele>
                <time>2005-09-25T01:01:13Z</time>
            </trkpt>
            <trkpt lon="101.387367" lat="14.207961">
                <ele>28.015503</ele>
                <time>2005-09-25T01:01:18Z</time>
            </trkpt>
            <trkpt lon="101.387257" lat="14.207925">
                <ele>28.015503</ele>
                <time>2005-09-25T01:01:24Z</time>
            </trkpt>
            <trkpt lon="101.387015" lat="14.207789">
                <ele>28.496216</ele>
                <time>2005-09-25T01:01:32Z</time>
            </trkpt>
            <trkpt lon="101.386704" lat="14.207645">
                <ele>27.534912</ele>
                <time>2005-09-25T01:01:39Z</time>
            </trkpt>
            <trkpt lon="101.386090" lat="14.207460">
                <ele>24.651001</ele>
                <time>2005-09-25T01:01:50Z</time>
            </trkpt>
            <trkpt lon="101.385676" lat="14.207323">
                <ele>21.286377</ele>
                <time>2005-09-25T01:01:58Z</time>
            </trkpt>
            <trkpt lon="101.385607" lat="14.207285">
                <ele>20.805664</ele>
                <time>2005-09-25T01:02:03Z</time>
            </trkpt>
            <trkpt lon="101.385406" lat="14.207187">
                <ele>21.286377</ele>
                <time>2005-09-25T01:02:08Z</time>
            </trkpt>
            <trkpt lon="101.384806" lat="14.206836">
                <ele>20.324951</ele>
                <time>2005-09-25T01:02:19Z</time>
            </trkpt>
            <trkpt lon="101.383955" lat="14.206335">
                <ele>19.844360</ele>
                <time>2005-09-25T01:02:33Z</time>
            </trkpt>
            <trkpt lon="101.383158" lat="14.205857">
                <ele>19.363770</ele>
                <time>2005-09-25T01:02:46Z</time>
            </trkpt>
            <trkpt lon="101.382580" lat="14.205504">
                <ele>18.402344</ele>
                <time>2005-09-25T01:02:57Z</time>
            </trkpt>
            <trkpt lon="101.381658" lat="14.204920">
                <ele>18.402344</ele>
                <time>2005-09-25T01:03:14Z</time>
            </trkpt>
            <trkpt lon="101.380831" lat="14.204397">
                <ele>18.883057</ele>
                <time>2005-09-25T01:03:28Z</time>
            </trkpt>
            <trkpt lon="101.379695" lat="14.203676">
                <ele>17.441162</ele>
                <time>2005-09-25T01:03:48Z</time>
            </trkpt>
            <trkpt lon="101.378854" lat="14.203140">
                <ele>17.921753</ele>
                <time>2005-09-25T01:04:04Z</time>
            </trkpt>
            <trkpt lon="101.378238" lat="14.202752">
                <ele>17.441162</ele>
                <time>2005-09-25T01:04:15Z</time>
            </trkpt>
            <trkpt lon="101.377731" lat="14.202432">
                <ele>16.960449</ele>
                <time>2005-09-25T01:04:25Z</time>
            </trkpt>
            <trkpt lon="101.377309" lat="14.202153">
                <ele>15.999023</ele>
                <time>2005-09-25T01:04:36Z</time>
            </trkpt>
            <trkpt lon="101.377221" lat="14.202084">
                <ele>15.999023</ele>
                <time>2005-09-25T01:04:42Z</time>
            </trkpt>
            <trkpt lon="101.377215" lat="14.202079">
                <ele>17.441162</ele>
                <time>2005-09-25T01:05:18Z</time>
            </trkpt>
            <trkpt lon="101.377135" lat="14.202029">
                <ele>16.960449</ele>
                <time>2005-09-25T01:08:33Z</time>
            </trkpt>
            <trkpt lon="101.376881" lat="14.201871">
                <ele>17.441162</ele>
                <time>2005-09-25T01:08:40Z</time>
            </trkpt>
            <trkpt lon="101.376359" lat="14.201540">
                <ele>16.960449</ele>
                <time>2005-09-25T01:08:50Z</time>
            </trkpt>
            <trkpt lon="101.375715" lat="14.201136">
                <ele>17.921753</ele>
                <time>2005-09-25T01:09:00Z</time>
            </trkpt>
            <trkpt lon="101.374670" lat="14.200440">
                <ele>17.441162</ele>
                <time>2005-09-25T01:09:16Z</time>
            </trkpt>
            <trkpt lon="101.373839" lat="14.199868">
                <ele>16.960449</ele>
                <time>2005-09-25T01:09:29Z</time>
            </trkpt>
            <trkpt lon="101.373030" lat="14.199314">
                <ele>15.999023</ele>
                <time>2005-09-25T01:09:42Z</time>
            </trkpt>
            <trkpt lon="101.372852" lat="14.199190">
                <ele>15.999023</ele>
                <time>2005-09-25T01:09:47Z</time>
            </trkpt>
            <trkpt lon="101.372731" lat="14.199102">
                <ele>15.999023</ele>
                <time>2005-09-25T01:09:50Z</time>
            </trkpt>
            <trkpt lon="101.372623" lat="14.198982">
                <ele>15.999023</ele>
                <time>2005-09-25T01:09:53Z</time>
            </trkpt>
            <trkpt lon="101.372565" lat="14.198896">
                <ele>15.518433</ele>
                <time>2005-09-25T01:09:55Z</time>
            </trkpt>
            <trkpt lon="101.372513" lat="14.198713">
                <ele>15.999023</ele>
                <time>2005-09-25T01:09:59Z</time>
            </trkpt>
            <trkpt lon="101.372442" lat="14.198404">
                <ele>15.518433</ele>
                <time>2005-09-25T01:10:07Z</time>
            </trkpt>
            <trkpt lon="101.372325" lat="14.198184">
                <ele>15.518433</ele>
                <time>2005-09-25T01:10:14Z</time>
            </trkpt>
            <trkpt lon="101.372176" lat="14.197884">
                <ele>15.518433</ele>
                <time>2005-09-25T01:10:22Z</time>
            </trkpt>
            <trkpt lon="101.371934" lat="14.197670">
                <ele>15.037720</ele>
                <time>2005-09-25T01:10:30Z</time>
            </trkpt>
            <trkpt lon="101.371841" lat="14.197626">
                <ele>15.037720</ele>
                <time>2005-09-25T01:10:36Z</time>
            </trkpt>
            <trkpt lon="101.371825" lat="14.197617">
                <ele>15.037720</ele>
                <time>2005-09-25T01:10:45Z</time>
            </trkpt>
            <trkpt lon="101.371811" lat="14.197596">
                <ele>15.037720</ele>
                <time>2005-09-25T01:10:50Z</time>
            </trkpt>
            <trkpt lon="101.371764" lat="14.197435">
                <ele>15.037720</ele>
                <time>2005-09-25T01:11:00Z</time>
            </trkpt>
            <trkpt lon="101.371724" lat="14.197231">
                <ele>15.037720</ele>
                <time>2005-09-25T01:11:10Z</time>
            </trkpt>
            <trkpt lon="101.371645" lat="14.196975">
                <ele>14.557007</ele>
                <time>2005-09-25T01:11:22Z</time>
            </trkpt>
            <trkpt lon="101.371629" lat="14.196788">
                <ele>14.076416</ele>
                <time>2005-09-25T01:11:31Z</time>
            </trkpt>
            <trkpt lon="101.371715" lat="14.196596">
                <ele>14.076416</ele>
                <time>2005-09-25T01:11:40Z</time>
            </trkpt>
            <trkpt lon="101.371779" lat="14.196453">
                <ele>13.595825</ele>
                <time>2005-09-25T01:11:49Z</time>
            </trkpt>
            <trkpt lon="101.371785" lat="14.196438">
                <ele>13.595825</ele>
                <time>2005-09-25T01:11:57Z</time>
            </trkpt>
            <trkpt lon="101.371777" lat="14.196411">
                <ele>14.076416</ele>
                <time>2005-09-25T01:12:05Z</time>
            </trkpt>
            <trkpt lon="101.371746" lat="14.196387">
                <ele>14.557007</ele>
                <time>2005-09-25T01:12:18Z</time>
            </trkpt>
            <trkpt lon="101.371735" lat="14.196381">
                <ele>14.557007</ele>
                <time>2005-09-25T01:12:23Z</time>
            </trkpt>
            <trkpt lon="101.371679" lat="14.196307">
                <ele>15.037720</ele>
                <time>2005-09-25T01:12:28Z</time>
            </trkpt>
            <trkpt lon="101.371604" lat="14.196121">
                <ele>15.518433</ele>
                <time>2005-09-25T01:12:40Z</time>
            </trkpt>
            <trkpt lon="101.371547" lat="14.195931">
                <ele>15.518433</ele>
                <time>2005-09-25T01:12:53Z</time>
            </trkpt>
            <trkpt lon="101.371535" lat="14.195892">
                <ele>15.037720</ele>
                <time>2005-09-25T01:13:02Z</time>
            </trkpt>
            <trkpt lon="101.371522" lat="14.195830">
                <ele>15.037720</ele>
                <time>2005-09-25T01:13:13Z</time>
            </trkpt>
            <trkpt lon="101.371505" lat="14.195604">
                <ele>14.557007</ele>
                <time>2005-09-25T01:13:21Z</time>
            </trkpt>
            <trkpt lon="101.371529" lat="14.195324">
                <ele>15.037720</ele>
                <time>2005-09-25T01:13:31Z</time>
            </trkpt>
            <trkpt lon="101.371562" lat="14.195066">
                <ele>15.518433</ele>
                <time>2005-09-25T01:13:41Z</time>
            </trkpt>
            <trkpt lon="101.371506" lat="14.195003">
                <ele>15.518433</ele>
                <time>2005-09-25T01:13:45Z</time>
            </trkpt>
            <trkpt lon="101.371300" lat="14.195053">
                <ele>15.999023</ele>
                <time>2005-09-25T01:13:54Z</time>
            </trkpt>
            <trkpt lon="101.371052" lat="14.195235">
                <ele>16.479736</ele>
                <time>2005-09-25T01:14:02Z</time>
            </trkpt>
            <trkpt lon="101.370722" lat="14.195409">
                <ele>15.999023</ele>
                <time>2005-09-25T01:14:13Z</time>
            </trkpt>
            <trkpt lon="101.370689" lat="14.195418">
                <ele>15.999023</ele>
                <time>2005-09-25T01:14:14Z</time>
            </trkpt>
            <trkpt lon="101.370503" lat="14.195299">
                <ele>15.518433</ele>
                <time>2005-09-25T01:14:21Z</time>
            </trkpt>
            <trkpt lon="101.370478" lat="14.195209">
                <ele>15.999023</ele>
                <time>2005-09-25T01:14:24Z</time>
            </trkpt>
            <trkpt lon="101.370494" lat="14.194800">
                <ele>15.518433</ele>
                <time>2005-09-25T01:14:37Z</time>
            </trkpt>
            <trkpt lon="101.370383" lat="14.194682">
                <ele>15.999023</ele>
                <time>2005-09-25T01:14:43Z</time>
            </trkpt>
            <trkpt lon="101.370115" lat="14.194518">
                <ele>15.999023</ele>
                <time>2005-09-25T01:14:54Z</time>
            </trkpt>
            <trkpt lon="101.369905" lat="14.194500">
                <ele>15.518433</ele>
                <time>2005-09-25T01:15:02Z</time>
            </trkpt>
            <trkpt lon="101.369613" lat="14.194484">
                <ele>15.999023</ele>
                <time>2005-09-25T01:15:13Z</time>
            </trkpt>
            <trkpt lon="101.369416" lat="14.194321">
                <ele>15.518433</ele>
                <time>2005-09-25T01:15:21Z</time>
            </trkpt>
            <trkpt lon="101.369349" lat="14.194257">
                <ele>15.518433</ele>
                <time>2005-09-25T01:15:24Z</time>
            </trkpt>
            <trkpt lon="101.369156" lat="14.194147">
                <ele>15.999023</ele>
                <time>2005-09-25T01:15:31Z</time>
            </trkpt>
            <trkpt lon="101.368896" lat="14.194115">
                <ele>15.037720</ele>
                <time>2005-09-25T01:15:39Z</time>
            </trkpt>
            <trkpt lon="101.368697" lat="14.194196">
                <ele>15.037720</ele>
                <time>2005-09-25T01:15:46Z</time>
            </trkpt>
            <trkpt lon="101.368407" lat="14.194295">
                <ele>15.518433</ele>
                <time>2005-09-25T01:15:56Z</time>
            </trkpt>
            <trkpt lon="101.368114" lat="14.194317">
                <ele>14.557007</ele>
                <time>2005-09-25T01:16:05Z</time>
            </trkpt>
            <trkpt lon="101.367979" lat="14.194441">
                <ele>15.037720</ele>
                <time>2005-09-25T01:16:11Z</time>
            </trkpt>
            <trkpt lon="101.367791" lat="14.194661">
                <ele>15.037720</ele>
                <time>2005-09-25T01:16:20Z</time>
            </trkpt>
            <trkpt lon="101.367581" lat="14.194678">
                <ele>15.037720</ele>
                <time>2005-09-25T01:16:27Z</time>
            </trkpt>
            <trkpt lon="101.367343" lat="14.194660">
                <ele>14.557007</ele>
                <time>2005-09-25T01:16:36Z</time>
            </trkpt>
            <trkpt lon="101.367109" lat="14.194713">
                <ele>14.557007</ele>
                <time>2005-09-25T01:16:44Z</time>
            </trkpt>
            <trkpt lon="101.366856" lat="14.194819">
                <ele>14.557007</ele>
                <time>2005-09-25T01:16:54Z</time>
            </trkpt>
            <trkpt lon="101.366701" lat="14.194767">
                <ele>14.557007</ele>
                <time>2005-09-25T01:17:00Z</time>
            </trkpt>
            <trkpt lon="101.366508" lat="14.194622">
                <ele>14.557007</ele>
                <time>2005-09-25T01:17:08Z</time>
            </trkpt>
            <trkpt lon="101.366225" lat="14.194575">
                <ele>14.557007</ele>
                <time>2005-09-25T01:17:17Z</time>
            </trkpt>
            <trkpt lon="101.366088" lat="14.194521">
                <ele>14.076416</ele>
                <time>2005-09-25T01:17:23Z</time>
            </trkpt>
            <trkpt lon="101.365895" lat="14.194442">
                <ele>14.076416</ele>
                <time>2005-09-25T01:17:29Z</time>
            </trkpt>
            <trkpt lon="101.365522" lat="14.194371">
                <ele>14.557007</ele>
                <time>2005-09-25T01:17:39Z</time>
            </trkpt>
            <trkpt lon="101.365257" lat="14.194320">
                <ele>14.076416</ele>
                <time>2005-09-25T01:17:47Z</time>
            </trkpt>
            <trkpt lon="101.364976" lat="14.194268">
                <ele>14.557007</ele>
                <time>2005-09-25T01:17:56Z</time>
            </trkpt>
            <trkpt lon="101.364768" lat="14.194146">
                <ele>14.557007</ele>
                <time>2005-09-25T01:18:04Z</time>
            </trkpt>
            <trkpt lon="101.364637" lat="14.193948">
                <ele>14.557007</ele>
                <time>2005-09-25T01:18:11Z</time>
            </trkpt>
            <trkpt lon="101.364459" lat="14.193787">
                <ele>14.557007</ele>
                <time>2005-09-25T01:18:19Z</time>
            </trkpt>
            <trkpt lon="101.364213" lat="14.193787">
                <ele>14.076416</ele>
                <time>2005-09-25T01:18:26Z</time>
            </trkpt>
            <trkpt lon="101.364022" lat="14.193724">
                <ele>14.076416</ele>
                <time>2005-09-25T01:18:33Z</time>
            </trkpt>
            <trkpt lon="101.363989" lat="14.193581">
                <ele>13.595825</ele>
                <time>2005-09-25T01:18:39Z</time>
            </trkpt>
            <trkpt lon="101.364007" lat="14.193543">
                <ele>14.076416</ele>
                <time>2005-09-25T01:18:41Z</time>
            </trkpt>
            <trkpt lon="101.364070" lat="14.193515">
                <ele>14.076416</ele>
                <time>2005-09-25T01:18:49Z</time>
            </trkpt>
            <trkpt lon="101.364086" lat="14.193501">
                <ele>14.076416</ele>
                <time>2005-09-25T01:19:08Z</time>
            </trkpt>
            <trkpt lon="101.364047" lat="14.193515">
                <ele>14.076416</ele>
                <time>2005-09-25T01:19:21Z</time>
            </trkpt>
            <trkpt lon="101.364038" lat="14.193510">
                <ele>14.076416</ele>
                <time>2005-09-25T01:19:30Z</time>
            </trkpt>
            <trkpt lon="101.364032" lat="14.193575">
                <ele>14.076416</ele>
                <time>2005-09-25T01:19:40Z</time>
            </trkpt>
            <trkpt lon="101.364044" lat="14.193604">
                <ele>10.711792</ele>
                <time>2005-09-25T01:21:24Z</time>
            </trkpt>
            <trkpt lon="101.364052" lat="14.193601">
                <ele>13.595825</ele>
                <time>2005-09-25T01:22:07Z</time>
            </trkpt>
            <trkpt lon="101.364033" lat="14.193533">
                <ele>11.673218</ele>
                <time>2005-09-25T01:22:43Z</time>
            </trkpt>
            <trkpt lon="101.364036" lat="14.193534">
                <ele>11.192505</ele>
                <time>2005-09-25T01:22:56Z</time>
            </trkpt>
            <trkpt lon="101.364038" lat="14.193534">
                <ele>14.076416</ele>
                <time>2005-09-25T01:22:59Z</time>
            </trkpt>
            <trkpt lon="101.364018" lat="14.193530">
                <ele>12.634399</ele>
                <time>2005-09-25T01:24:42Z</time>
            </trkpt>
            <trkpt lon="101.364059" lat="14.193537">
                <ele>13.115112</ele>
                <time>2005-09-25T01:25:03Z</time>
            </trkpt>
            <trkpt lon="101.364072" lat="14.193533">
                <ele>13.115112</ele>
                <time>2005-09-25T01:25:12Z</time>
            </trkpt>
            <trkpt lon="101.364113" lat="14.193521">
                <ele>13.115112</ele>
                <time>2005-09-25T01:25:37Z</time>
            </trkpt>
            <trkpt lon="101.364178" lat="14.193504">
                <ele>12.153809</ele>
                <time>2005-09-25T01:25:41Z</time>
            </trkpt>
            <trkpt lon="101.364426" lat="14.193497">
                <ele>12.153809</ele>
                <time>2005-09-25T01:25:51Z</time>
            </trkpt>
            <trkpt lon="101.364651" lat="14.193507">
                <ele>12.153809</ele>
                <time>2005-09-25T01:26:00Z</time>
            </trkpt>
            <trkpt lon="101.364785" lat="14.193628">
                <ele>12.634399</ele>
                <time>2005-09-25T01:26:08Z</time>
            </trkpt>
            <trkpt lon="101.364871" lat="14.193767">
                <ele>12.634399</ele>
                <time>2005-09-25T01:26:17Z</time>
            </trkpt>
            <trkpt lon="101.364935" lat="14.193889">
                <ele>12.153809</ele>
                <time>2005-09-25T01:26:25Z</time>
            </trkpt>
            <trkpt lon="101.365074" lat="14.193999">
                <ele>12.153809</ele>
                <time>2005-09-25T01:26:35Z</time>
            </trkpt>
            <trkpt lon="101.365284" lat="14.194036">
                <ele>12.634399</ele>
                <time>2005-09-25T01:26:44Z</time>
            </trkpt>
            <trkpt lon="101.365594" lat="14.194082">
                <ele>12.634399</ele>
                <time>2005-09-25T01:26:55Z</time>
            </trkpt>
            <trkpt lon="101.365818" lat="14.194132">
                <ele>12.634399</ele>
                <time>2005-09-25T01:27:03Z</time>
            </trkpt>
            <trkpt lon="101.366082" lat="14.194174">
                <ele>12.153809</ele>
                <time>2005-09-25T01:27:13Z</time>
            </trkpt>
            <trkpt lon="101.366393" lat="14.194291">
                <ele>12.153809</ele>
                <time>2005-09-25T01:27:24Z</time>
            </trkpt>
            <trkpt lon="101.366598" lat="14.194329">
                <ele>12.153809</ele>
                <time>2005-09-25T01:27:33Z</time>
            </trkpt>
            <trkpt lon="101.366640" lat="14.194336">
                <ele>12.634399</ele>
                <time>2005-09-25T01:27:39Z</time>
            </trkpt>
            <trkpt lon="101.366643" lat="14.194342">
                <ele>13.115112</ele>
                <time>2005-09-25T01:28:03Z</time>
            </trkpt>
            <trkpt lon="101.366796" lat="14.194418">
                <ele>12.634399</ele>
                <time>2005-09-25T01:28:13Z</time>
            </trkpt>
            <trkpt lon="101.366959" lat="14.194451">
                <ele>11.673218</ele>
                <time>2005-09-25T01:28:18Z</time>
            </trkpt>
            <trkpt lon="101.367208" lat="14.194404">
                <ele>10.711792</ele>
                <time>2005-09-25T01:28:25Z</time>
            </trkpt>
            <trkpt lon="101.367620" lat="14.194379">
                <ele>11.673218</ele>
                <time>2005-09-25T01:28:36Z</time>
            </trkpt>
            <trkpt lon="101.367843" lat="14.194149">
                <ele>12.153809</ele>
                <time>2005-09-25T01:28:44Z</time>
            </trkpt>
            <trkpt lon="101.368081" lat="14.194018">
                <ele>12.153809</ele>
                <time>2005-09-25T01:28:51Z</time>
            </trkpt>
            <trkpt lon="101.368364" lat="14.194006">
                <ele>12.634399</ele>
                <time>2005-09-25T01:28:58Z</time>
            </trkpt>
            <trkpt lon="101.368710" lat="14.193903">
                <ele>11.673218</ele>
                <time>2005-09-25T01:29:07Z</time>
            </trkpt>
            <trkpt lon="101.368948" lat="14.193827">
                <ele>11.673218</ele>
                <time>2005-09-25T01:29:13Z</time>
            </trkpt>
            <trkpt lon="101.369233" lat="14.193857">
                <ele>12.634399</ele>
                <time>2005-09-25T01:29:20Z</time>
            </trkpt>
            <trkpt lon="101.369484" lat="14.193967">
                <ele>13.595825</ele>
                <time>2005-09-25T01:29:27Z</time>
            </trkpt>
            <trkpt lon="101.369777" lat="14.194206">
                <ele>13.115112</ele>
                <time>2005-09-25T01:29:37Z</time>
            </trkpt>
            <trkpt lon="101.369977" lat="14.194230">
                <ele>13.595825</ele>
                <time>2005-09-25T01:29:43Z</time>
            </trkpt>
            <trkpt lon="101.370326" lat="14.194309">
                <ele>12.634399</ele>
                <time>2005-09-25T01:29:52Z</time>
            </trkpt>
            <trkpt lon="101.370667" lat="14.194491">
                <ele>11.673218</ele>
                <time>2005-09-25T01:30:02Z</time>
            </trkpt>
            <trkpt lon="101.370864" lat="14.194735">
                <ele>12.153809</ele>
                <time>2005-09-25T01:30:11Z</time>
            </trkpt>
            <trkpt lon="101.370886" lat="14.194908">
                <ele>12.634399</ele>
                <time>2005-09-25T01:30:16Z</time>
            </trkpt>
            <trkpt lon="101.371038" lat="14.194959">
                <ele>13.115112</ele>
                <time>2005-09-25T01:30:22Z</time>
            </trkpt>
            <trkpt lon="101.371093" lat="14.194931">
                <ele>13.115112</ele>
                <time>2005-09-25T01:30:24Z</time>
            </trkpt>
            <trkpt lon="101.371273" lat="14.194794">
                <ele>13.115112</ele>
                <time>2005-09-25T01:30:33Z</time>
            </trkpt>
            <trkpt lon="101.371481" lat="14.194698">
                <ele>13.115112</ele>
                <time>2005-09-25T01:30:40Z</time>
            </trkpt>
            <trkpt lon="101.371618" lat="14.194746">
                <ele>12.153809</ele>
                <time>2005-09-25T01:30:44Z</time>
            </trkpt>
            <trkpt lon="101.371800" lat="14.194872">
                <ele>12.634399</ele>
                <time>2005-09-25T01:30:49Z</time>
            </trkpt>
            <trkpt lon="101.371873" lat="14.195100">
                <ele>12.634399</ele>
                <time>2005-09-25T01:30:55Z</time>
            </trkpt>
            <trkpt lon="101.371869" lat="14.195176">
                <ele>12.634399</ele>
                <time>2005-09-25T01:30:57Z</time>
            </trkpt>
            <trkpt lon="101.371781" lat="14.195627">
                <ele>13.115112</ele>
                <time>2005-09-25T01:31:07Z</time>
            </trkpt>
            <trkpt lon="101.371898" lat="14.196097">
                <ele>12.634399</ele>
                <time>2005-09-25T01:31:16Z</time>
            </trkpt>
            <trkpt lon="101.371941" lat="14.196324">
                <ele>13.595825</ele>
                <time>2005-09-25T01:31:22Z</time>
            </trkpt>
            <trkpt lon="101.371830" lat="14.196471">
                <ele>14.076416</ele>
                <time>2005-09-25T01:31:30Z</time>
            </trkpt>
            <trkpt lon="101.371818" lat="14.196475">
                <ele>14.076416</ele>
                <time>2005-09-25T01:31:43Z</time>
            </trkpt>
            <trkpt lon="101.371816" lat="14.196474">
                <ele>14.076416</ele>
                <time>2005-09-25T01:32:20Z</time>
            </trkpt>
            <trkpt lon="101.371806" lat="14.196452">
                <ele>14.557007</ele>
                <time>2005-09-25T01:32:53Z</time>
            </trkpt>
            <trkpt lon="101.371812" lat="14.196443">
                <ele>14.557007</ele>
                <time>2005-09-25T01:32:54Z</time>
            </trkpt>
            <trkpt lon="101.371928" lat="14.196334">
                <ele>15.037720</ele>
                <time>2005-09-25T01:33:04Z</time>
            </trkpt>
            <trkpt lon="101.371975" lat="14.196313">
                <ele>15.037720</ele>
                <time>2005-09-25T01:33:11Z</time>
            </trkpt>
            <trkpt lon="101.371977" lat="14.196313">
                <ele>10.231201</ele>
                <time>2005-09-25T01:33:13Z</time>
            </trkpt>
            <trkpt lon="101.371977" lat="14.196312">
                <ele>16.479736</ele>
                <time>2005-09-25T01:33:14Z</time>
            </trkpt>
            <trkpt lon="101.371978" lat="14.196312">
                <ele>14.557007</ele>
                <time>2005-09-25T01:33:15Z</time>
            </trkpt>
            <trkpt lon="101.371979" lat="14.196311">
                <ele>26.573608</ele>
                <time>2005-09-25T01:33:17Z</time>
            </trkpt>
            <trkpt lon="101.371981" lat="14.196310">
                <ele>16.479736</ele>
                <time>2005-09-25T01:33:18Z</time>
            </trkpt>
            <trkpt lon="101.371976" lat="14.196280">
                <ele>15.037720</ele>
                <time>2005-09-25T01:33:24Z</time>
            </trkpt>
            <trkpt lon="101.371934" lat="14.196164">
                <ele>14.557007</ele>
                <time>2005-09-25T01:33:31Z</time>
            </trkpt>
            <trkpt lon="101.371923" lat="14.196138">
                <ele>14.557007</ele>
                <time>2005-09-25T01:33:32Z</time>
            </trkpt>
            <trkpt lon="101.371883" lat="14.196003">
                <ele>14.557007</ele>
                <time>2005-09-25T01:33:37Z</time>
            </trkpt>
            <trkpt lon="101.371859" lat="14.196015">
                <ele>14.557007</ele>
                <time>2005-09-25T01:33:40Z</time>
            </trkpt>
            <trkpt lon="101.371900" lat="14.196172">
                <ele>15.037720</ele>
                <time>2005-09-25T01:33:48Z</time>
            </trkpt>
            <trkpt lon="101.371958" lat="14.196293">
                <ele>15.518433</ele>
                <time>2005-09-25T01:33:57Z</time>
            </trkpt>
            <trkpt lon="101.371962" lat="14.196294">
                <ele>4.943848</ele>
                <time>2005-09-25T01:33:58Z</time>
            </trkpt>
            <trkpt lon="101.371967" lat="14.196296">
                <ele>7.347168</ele>
                <time>2005-09-25T01:33:59Z</time>
            </trkpt>
            <trkpt lon="101.371973" lat="14.196299">
                <ele>15.999023</ele>
                <time>2005-09-25T01:34:00Z</time>
            </trkpt>
            <trkpt lon="101.371973" lat="14.196299">
                <ele>15.999023</ele>
                <time>2005-09-25T01:34:01Z</time>
            </trkpt>
            <trkpt lon="101.371946" lat="14.196300">
                <ele>15.999023</ele>
                <time>2005-09-25T01:34:09Z</time>
            </trkpt>
            <trkpt lon="101.371846" lat="14.196414">
                <ele>15.037720</ele>
                <time>2005-09-25T01:34:15Z</time>
            </trkpt>
            <trkpt lon="101.371749" lat="14.196616">
                <ele>15.518433</ele>
                <time>2005-09-25T01:34:24Z</time>
            </trkpt>
            <trkpt lon="101.371737" lat="14.196607">
                <ele>15.518433</ele>
                <time>2005-09-25T01:34:27Z</time>
            </trkpt>
            <trkpt lon="101.371810" lat="14.196470">
                <ele>15.037720</ele>
                <time>2005-09-25T01:34:36Z</time>
            </trkpt>
            <trkpt lon="101.371931" lat="14.196297">
                <ele>14.557007</ele>
                <time>2005-09-25T01:34:44Z</time>
            </trkpt>
            <trkpt lon="101.371920" lat="14.196129">
                <ele>14.557007</ele>
                <time>2005-09-25T01:34:50Z</time>
            </trkpt>
            <trkpt lon="101.371889" lat="14.196041">
                <ele>15.037720</ele>
                <time>2005-09-25T01:34:56Z</time>
            </trkpt>
            <trkpt lon="101.371922" lat="14.196156">
                <ele>15.518433</ele>
                <time>2005-09-25T01:35:04Z</time>
            </trkpt>
            <trkpt lon="101.371965" lat="14.196227">
                <ele>15.518433</ele>
                <time>2005-09-25T01:35:11Z</time>
            </trkpt>
            <trkpt lon="101.371963" lat="14.196226">
                <ele>15.518433</ele>
                <time>2005-09-25T01:35:14Z</time>
            </trkpt>
            <trkpt lon="101.371964" lat="14.196283">
                <ele>15.518433</ele>
                <time>2005-09-25T01:35:19Z</time>
            </trkpt>
            <trkpt lon="101.372080" lat="14.196317">
                <ele>15.518433</ele>
                <time>2005-09-25T01:35:26Z</time>
            </trkpt>
            <trkpt lon="101.372209" lat="14.196364">
                <ele>15.037720</ele>
                <time>2005-09-25T01:35:34Z</time>
            </trkpt>
            <trkpt lon="101.372349" lat="14.196442">
                <ele>15.037720</ele>
                <time>2005-09-25T01:35:42Z</time>
            </trkpt>
            <trkpt lon="101.372362" lat="14.196443">
                <ele>15.037720</ele>
                <time>2005-09-25T01:35:43Z</time>
            </trkpt>
            <trkpt lon="101.372406" lat="14.196263">
                <ele>14.557007</ele>
                <time>2005-09-25T01:35:50Z</time>
            </trkpt>
            <trkpt lon="101.372542" lat="14.195927">
                <ele>15.037720</ele>
                <time>2005-09-25T01:35:59Z</time>
            </trkpt>
            <trkpt lon="101.372743" lat="14.195697">
                <ele>15.037720</ele>
                <time>2005-09-25T01:36:09Z</time>
            </trkpt>
            <trkpt lon="101.372864" lat="14.195569">
                <ele>13.595825</ele>
                <time>2005-09-25T01:36:18Z</time>
            </trkpt>
            <trkpt lon="101.373034" lat="14.195440">
                <ele>14.557007</ele>
                <time>2005-09-25T01:36:27Z</time>
            </trkpt>
            <trkpt lon="101.373281" lat="14.195294">
                <ele>15.518433</ele>
                <time>2005-09-25T01:36:37Z</time>
            </trkpt>
            <trkpt lon="101.373541" lat="14.195185">
                <ele>15.037720</ele>
                <time>2005-09-25T01:36:46Z</time>
            </trkpt>
            <trkpt lon="101.373709" lat="14.195094">
                <ele>15.999023</ele>
                <time>2005-09-25T01:36:52Z</time>
            </trkpt>
            <trkpt lon="101.373957" lat="14.195026">
                <ele>15.518433</ele>
                <time>2005-09-25T01:37:02Z</time>
            </trkpt>
            <trkpt lon="101.374040" lat="14.195101">
                <ele>14.557007</ele>
                <time>2005-09-25T01:37:06Z</time>
            </trkpt>
            <trkpt lon="101.374281" lat="14.195321">
                <ele>15.037720</ele>
                <time>2005-09-25T01:37:17Z</time>
            </trkpt>
            <trkpt lon="101.374478" lat="14.195520">
                <ele>15.037720</ele>
                <time>2005-09-25T01:37:26Z</time>
            </trkpt>
            <trkpt lon="101.374500" lat="14.195539">
                <ele>15.037720</ele>
                <time>2005-09-25T01:37:27Z</time>
            </trkpt>
            <trkpt lon="101.374738" lat="14.195644">
                <ele>15.037720</ele>
                <time>2005-09-25T01:37:36Z</time>
            </trkpt>
            <trkpt lon="101.374942" lat="14.195681">
                <ele>14.557007</ele>
                <time>2005-09-25T01:37:45Z</time>
            </trkpt>
            <trkpt lon="101.374979" lat="14.195688">
                <ele>14.076416</ele>
                <time>2005-09-25T01:37:53Z</time>
            </trkpt>
            <trkpt lon="101.375017" lat="14.195708">
                <ele>14.557007</ele>
                <time>2005-09-25T01:38:33Z</time>
            </trkpt>
            <trkpt lon="101.375185" lat="14.195660">
                <ele>14.557007</ele>
                <time>2005-09-25T01:38:41Z</time>
            </trkpt>
            <trkpt lon="101.375457" lat="14.195497">
                <ele>15.518433</ele>
                <time>2005-09-25T01:38:52Z</time>
            </trkpt>
            <trkpt lon="101.375670" lat="14.195308">
                <ele>14.557007</ele>
                <time>2005-09-25T01:39:03Z</time>
            </trkpt>
            <trkpt lon="101.375912" lat="14.195130">
                <ele>14.557007</ele>
                <time>2005-09-25T01:39:14Z</time>
            </trkpt>
            <trkpt lon="101.376079" lat="14.195064">
                <ele>14.557007</ele>
                <time>2005-09-25T01:39:21Z</time>
            </trkpt>
            <trkpt lon="101.376284" lat="14.195037">
                <ele>14.557007</ele>
                <time>2005-09-25T01:39:30Z</time>
            </trkpt>
            <trkpt lon="101.376372" lat="14.195066">
                <ele>15.037720</ele>
                <time>2005-09-25T01:39:41Z</time>
            </trkpt>
            <trkpt lon="101.376388" lat="14.195092">
                <ele>14.557007</ele>
                <time>2005-09-25T01:39:44Z</time>
            </trkpt>
            <trkpt lon="101.376494" lat="14.195159">
                <ele>15.037720</ele>
                <time>2005-09-25T01:39:53Z</time>
            </trkpt>
            <trkpt lon="101.376600" lat="14.195259">
                <ele>15.037720</ele>
                <time>2005-09-25T01:40:02Z</time>
            </trkpt>
            <trkpt lon="101.376617" lat="14.195285">
                <ele>15.518433</ele>
                <time>2005-09-25T01:40:08Z</time>
            </trkpt>
            <trkpt lon="101.376651" lat="14.195340">
                <ele>15.518433</ele>
                <time>2005-09-25T01:40:14Z</time>
            </trkpt>
            <trkpt lon="101.376683" lat="14.195471">
                <ele>15.518433</ele>
                <time>2005-09-25T01:40:20Z</time>
            </trkpt>
            <trkpt lon="101.376690" lat="14.195481">
                <ele>15.518433</ele>
                <time>2005-09-25T01:40:28Z</time>
            </trkpt>
            <trkpt lon="101.376679" lat="14.195504">
                <ele>15.037720</ele>
                <time>2005-09-25T01:40:36Z</time>
            </trkpt>
            <trkpt lon="101.376680" lat="14.195503">
                <ele>15.037720</ele>
                <time>2005-09-25T01:41:00Z</time>
            </trkpt>
            <trkpt lon="101.376678" lat="14.195519">
                <ele>15.518433</ele>
                <time>2005-09-25T01:41:11Z</time>
            </trkpt>
            <trkpt lon="101.376651" lat="14.195523">
                <ele>14.557007</ele>
                <time>2005-09-25T01:41:21Z</time>
            </trkpt>
            <trkpt lon="101.376645" lat="14.195530">
                <ele>15.037720</ele>
                <time>2005-09-25T01:41:30Z</time>
            </trkpt>
            <trkpt lon="101.376637" lat="14.195541">
                <ele>14.557007</ele>
                <time>2005-09-25T01:41:39Z</time>
            </trkpt>
            <trkpt lon="101.376624" lat="14.195555">
                <ele>15.037720</ele>
                <time>2005-09-25T01:41:48Z</time>
            </trkpt>
            <trkpt lon="101.376588" lat="14.195569">
                <ele>15.037720</ele>
                <time>2005-09-25T01:41:56Z</time>
            </trkpt>
            <trkpt lon="101.376562" lat="14.195586">
                <ele>15.037720</ele>
                <time>2005-09-25T01:42:04Z</time>
            </trkpt>
            <trkpt lon="101.376547" lat="14.195597">
                <ele>14.557007</ele>
                <time>2005-09-25T01:42:16Z</time>
            </trkpt>
            <trkpt lon="101.376551" lat="14.195594">
                <ele>15.518433</ele>
                <time>2005-09-25T01:42:23Z</time>
            </trkpt>
            <trkpt lon="101.376547" lat="14.195600">
                <ele>15.518433</ele>
                <time>2005-09-25T01:42:36Z</time>
            </trkpt>
            <trkpt lon="101.376552" lat="14.195640">
                <ele>15.518433</ele>
                <time>2005-09-25T01:42:57Z</time>
            </trkpt>
            <trkpt lon="101.376560" lat="14.195652">
                <ele>15.037720</ele>
                <time>2005-09-25T01:43:02Z</time>
            </trkpt>
            <trkpt lon="101.376639" lat="14.195745">
                <ele>15.518433</ele>
                <time>2005-09-25T01:43:13Z</time>
            </trkpt>
            <trkpt lon="101.376613" lat="14.195835">
                <ele>15.518433</ele>
                <time>2005-09-25T01:43:25Z</time>
            </trkpt>
            <trkpt lon="101.376585" lat="14.195855">
                <ele>15.037720</ele>
                <time>2005-09-25T01:43:33Z</time>
            </trkpt>
            <trkpt lon="101.376552" lat="14.195897">
                <ele>15.037720</ele>
                <time>2005-09-25T01:43:43Z</time>
            </trkpt>
            <trkpt lon="101.376492" lat="14.195965">
                <ele>14.557007</ele>
                <time>2005-09-25T01:43:55Z</time>
            </trkpt>
            <trkpt lon="101.376365" lat="14.196144">
                <ele>14.076416</ele>
                <time>2005-09-25T01:44:05Z</time>
            </trkpt>
            <trkpt lon="101.376230" lat="14.196348">
                <ele>13.595825</ele>
                <time>2005-09-25T01:44:16Z</time>
            </trkpt>
            <trkpt lon="101.376127" lat="14.196533">
                <ele>14.557007</ele>
                <time>2005-09-25T01:44:27Z</time>
            </trkpt>
            <trkpt lon="101.376051" lat="14.196687">
                <ele>13.595825</ele>
                <time>2005-09-25T01:44:38Z</time>
            </trkpt>
            <trkpt lon="101.376051" lat="14.196696">
                <ele>14.076416</ele>
                <time>2005-09-25T01:44:48Z</time>
            </trkpt>
            <trkpt lon="101.376015" lat="14.196756">
                <ele>14.076416</ele>
                <time>2005-09-25T01:45:02Z</time>
            </trkpt>
            <trkpt lon="101.375991" lat="14.196786">
                <ele>14.076416</ele>
                <time>2005-09-25T01:45:11Z</time>
            </trkpt>
            <trkpt lon="101.376000" lat="14.196809">
                <ele>14.557007</ele>
                <time>2005-09-25T01:45:18Z</time>
            </trkpt>
            <trkpt lon="101.375949" lat="14.196901">
                <ele>14.076416</ele>
                <time>2005-09-25T01:45:33Z</time>
            </trkpt>
            <trkpt lon="101.375888" lat="14.197062">
                <ele>14.557007</ele>
                <time>2005-09-25T01:45:41Z</time>
            </trkpt>
            <trkpt lon="101.375815" lat="14.197198">
                <ele>14.557007</ele>
                <time>2005-09-25T01:45:49Z</time>
            </trkpt>
            <trkpt lon="101.375777" lat="14.197322">
                <ele>14.557007</ele>
                <time>2005-09-25T01:45:56Z</time>
            </trkpt>
            <trkpt lon="101.375720" lat="14.197486">
                <ele>15.037720</ele>
                <time>2005-09-25T01:46:05Z</time>
            </trkpt>
            <trkpt lon="101.375660" lat="14.197604">
                <ele>14.557007</ele>
                <time>2005-09-25T01:46:14Z</time>
            </trkpt>
            <trkpt lon="101.375607" lat="14.197747">
                <ele>14.076416</ele>
                <time>2005-09-25T01:46:21Z</time>
            </trkpt>
            <trkpt lon="101.375676" lat="14.197822">
                <ele>14.557007</ele>
                <time>2005-09-25T01:46:29Z</time>
            </trkpt>
            <trkpt lon="101.375696" lat="14.197832">
                <ele>14.557007</ele>
                <time>2005-09-25T01:46:36Z</time>
            </trkpt>
            <trkpt lon="101.375695" lat="14.197840">
                <ele>15.518433</ele>
                <time>2005-09-25T01:46:48Z</time>
            </trkpt>
            <trkpt lon="101.375707" lat="14.197828">
                <ele>14.557007</ele>
                <time>2005-09-25T01:47:04Z</time>
            </trkpt>
            <trkpt lon="101.375733" lat="14.197833">
                <ele>14.557007</ele>
                <time>2005-09-25T01:47:11Z</time>
            </trkpt>
            <trkpt lon="101.375723" lat="14.197834">
                <ele>13.595825</ele>
                <time>2005-09-25T01:47:34Z</time>
            </trkpt>
            <trkpt lon="101.375705" lat="14.197836">
                <ele>13.595825</ele>
                <time>2005-09-25T01:47:48Z</time>
            </trkpt>
            <trkpt lon="101.375727" lat="14.197820">
                <ele>14.557007</ele>
                <time>2005-09-25T01:48:12Z</time>
            </trkpt>
            <trkpt lon="101.375734" lat="14.197835">
                <ele>13.595825</ele>
                <time>2005-09-25T01:48:20Z</time>
            </trkpt>
            <trkpt lon="101.375791" lat="14.197879">
                <ele>13.115112</ele>
                <time>2005-09-25T01:48:45Z</time>
            </trkpt>
            <trkpt lon="101.376030" lat="14.198037">
                <ele>13.595825</ele>
                <time>2005-09-25T01:48:54Z</time>
            </trkpt>
            <trkpt lon="101.376258" lat="14.198041">
                <ele>13.115112</ele>
                <time>2005-09-25T01:49:01Z</time>
            </trkpt>
            <trkpt lon="101.376729" lat="14.197839">
                <ele>13.595825</ele>
                <time>2005-09-25T01:49:14Z</time>
            </trkpt>
            <trkpt lon="101.377011" lat="14.197698">
                <ele>13.595825</ele>
                <time>2005-09-25T01:49:23Z</time>
            </trkpt>
            <trkpt lon="101.377127" lat="14.197747">
                <ele>14.076416</ele>
                <time>2005-09-25T01:49:28Z</time>
            </trkpt>
            <trkpt lon="101.377264" lat="14.197966">
                <ele>14.557007</ele>
                <time>2005-09-25T01:49:35Z</time>
            </trkpt>
            <trkpt lon="101.377532" lat="14.198352">
                <ele>14.557007</ele>
                <time>2005-09-25T01:49:48Z</time>
            </trkpt>
            <trkpt lon="101.377653" lat="14.198390">
                <ele>15.037720</ele>
                <time>2005-09-25T01:49:52Z</time>
            </trkpt>
            <trkpt lon="101.377869" lat="14.198297">
                <ele>14.557007</ele>
                <time>2005-09-25T01:49:59Z</time>
            </trkpt>
            <trkpt lon="101.377939" lat="14.198272">
                <ele>14.557007</ele>
                <time>2005-09-25T01:50:01Z</time>
            </trkpt>
            <trkpt lon="101.378104" lat="14.198347">
                <ele>15.518433</ele>
                <time>2005-09-25T01:50:05Z</time>
            </trkpt>
            <trkpt lon="101.378220" lat="14.198434">
                <ele>15.037720</ele>
                <time>2005-09-25T01:50:08Z</time>
            </trkpt>
            <trkpt lon="101.378341" lat="14.198529">
                <ele>15.518433</ele>
                <time>2005-09-25T01:50:11Z</time>
            </trkpt>
            <trkpt lon="101.378522" lat="14.198614">
                <ele>14.557007</ele>
                <time>2005-09-25T01:50:15Z</time>
            </trkpt>
            <trkpt lon="101.378649" lat="14.198674">
                <ele>15.518433</ele>
                <time>2005-09-25T01:50:18Z</time>
            </trkpt>
            <trkpt lon="101.378716" lat="14.198731">
                <ele>15.999023</ele>
                <time>2005-09-25T01:50:20Z</time>
            </trkpt>
            <trkpt lon="101.378823" lat="14.198880">
                <ele>15.518433</ele>
                <time>2005-09-25T01:50:24Z</time>
            </trkpt>
            <trkpt lon="101.378889" lat="14.199095">
                <ele>15.037720</ele>
                <time>2005-09-25T01:50:29Z</time>
            </trkpt>
            <trkpt lon="101.378891" lat="14.199583">
                <ele>15.037720</ele>
                <time>2005-09-25T01:50:39Z</time>
            </trkpt>
            <trkpt lon="101.378983" lat="14.199962">
                <ele>14.557007</ele>
                <time>2005-09-25T01:50:47Z</time>
            </trkpt>
            <trkpt lon="101.379238" lat="14.200163">
                <ele>13.595825</ele>
                <time>2005-09-25T01:50:54Z</time>
            </trkpt>
            <trkpt lon="101.379328" lat="14.200179">
                <ele>14.076416</ele>
                <time>2005-09-25T01:50:56Z</time>
            </trkpt>
            <trkpt lon="101.379832" lat="14.200139">
                <ele>14.557007</ele>
                <time>2005-09-25T01:51:06Z</time>
            </trkpt>
            <trkpt lon="101.380189" lat="14.200060">
                <ele>15.037720</ele>
                <time>2005-09-25T01:51:13Z</time>
            </trkpt>
            <trkpt lon="101.380562" lat="14.199807">
                <ele>14.557007</ele>
                <time>2005-09-25T01:51:22Z</time>
            </trkpt>
            <trkpt lon="101.380996" lat="14.199368">
                <ele>14.557007</ele>
                <time>2005-09-25T01:51:35Z</time>
            </trkpt>
            <trkpt lon="101.381371" lat="14.198977">
                <ele>14.557007</ele>
                <time>2005-09-25T01:51:45Z</time>
            </trkpt>
            <trkpt lon="101.381755" lat="14.198737">
                <ele>14.076416</ele>
                <time>2005-09-25T01:51:53Z</time>
            </trkpt>
            <trkpt lon="101.381889" lat="14.198654">
                <ele>15.037720</ele>
                <time>2005-09-25T01:51:56Z</time>
            </trkpt>
            <trkpt lon="101.382039" lat="14.198590">
                <ele>14.557007</ele>
                <time>2005-09-25T01:51:59Z</time>
            </trkpt>
            <trkpt lon="101.382477" lat="14.198606">
                <ele>15.037720</ele>
                <time>2005-09-25T01:52:07Z</time>
            </trkpt>
            <trkpt lon="101.382985" lat="14.198580">
                <ele>15.999023</ele>
                <time>2005-09-25T01:52:16Z</time>
            </trkpt>
            <trkpt lon="101.383298" lat="14.198535">
                <ele>15.518433</ele>
                <time>2005-09-25T01:52:23Z</time>
            </trkpt>
            <trkpt lon="101.383441" lat="14.198535">
                <ele>15.999023</ele>
                <time>2005-09-25T01:52:28Z</time>
            </trkpt>
            <trkpt lon="101.383662" lat="14.198519">
                <ele>14.557007</ele>
                <time>2005-09-25T01:52:34Z</time>
            </trkpt>
            <trkpt lon="101.383877" lat="14.198508">
                <ele>15.518433</ele>
                <time>2005-09-25T01:52:43Z</time>
            </trkpt>
            <trkpt lon="101.384088" lat="14.198573">
                <ele>15.518433</ele>
                <time>2005-09-25T01:52:49Z</time>
            </trkpt>
            <trkpt lon="101.384253" lat="14.198692">
                <ele>15.518433</ele>
                <time>2005-09-25T01:52:54Z</time>
            </trkpt>
            <trkpt lon="101.384660" lat="14.198745">
                <ele>15.518433</ele>
                <time>2005-09-25T01:53:03Z</time>
            </trkpt>
            <trkpt lon="101.384719" lat="14.198757">
                <ele>16.479736</ele>
                <time>2005-09-25T01:53:08Z</time>
            </trkpt>
            <trkpt lon="101.384897" lat="14.198758">
                <ele>15.999023</ele>
                <time>2005-09-25T01:53:12Z</time>
            </trkpt>
            <trkpt lon="101.385381" lat="14.198740">
                <ele>15.037720</ele>
                <time>2005-09-25T01:53:20Z</time>
            </trkpt>
            <trkpt lon="101.385567" lat="14.198710">
                <ele>15.037720</ele>
                <time>2005-09-25T01:53:23Z</time>
            </trkpt>
            <trkpt lon="101.385912" lat="14.198670">
                <ele>15.518433</ele>
                <time>2005-09-25T01:53:29Z</time>
            </trkpt>
            <trkpt lon="101.386428" lat="14.198576">
                <ele>15.999023</ele>
                <time>2005-09-25T01:53:39Z</time>
            </trkpt>
            <trkpt lon="101.386475" lat="14.198574">
                <ele>16.479736</ele>
                <time>2005-09-25T01:53:40Z</time>
            </trkpt>
            <trkpt lon="101.386893" lat="14.198582">
                <ele>16.479736</ele>
                <time>2005-09-25T01:53:49Z</time>
            </trkpt>
            <trkpt lon="101.387027" lat="14.198550">
                <ele>15.518433</ele>
                <time>2005-09-25T01:53:55Z</time>
            </trkpt>
            <trkpt lon="101.387005" lat="14.198560">
                <ele>15.518433</ele>
                <time>2005-09-25T01:54:04Z</time>
            </trkpt>
            <trkpt lon="101.386991" lat="14.198585">
                <ele>15.999023</ele>
                <time>2005-09-25T01:54:56Z</time>
            </trkpt>
            <trkpt lon="101.387065" lat="14.198541">
                <ele>16.479736</ele>
                <time>2005-09-25T01:56:40Z</time>
            </trkpt>
            <trkpt lon="101.387159" lat="14.198586">
                <ele>16.479736</ele>
                <time>2005-09-25T01:56:48Z</time>
            </trkpt>
            <trkpt lon="101.387318" lat="14.198750">
                <ele>16.960449</ele>
                <time>2005-09-25T01:56:57Z</time>
            </trkpt>
            <trkpt lon="101.387557" lat="14.198986">
                <ele>16.479736</ele>
                <time>2005-09-25T01:57:03Z</time>
            </trkpt>
            <trkpt lon="101.387914" lat="14.199348">
                <ele>17.921753</ele>
                <time>2005-09-25T01:57:12Z</time>
            </trkpt>
            <trkpt lon="101.388483" lat="14.199931">
                <ele>17.441162</ele>
                <time>2005-09-25T01:57:25Z</time>
            </trkpt>
            <trkpt lon="101.389003" lat="14.200454">
                <ele>19.363770</ele>
                <time>2005-09-25T01:57:36Z</time>
            </trkpt>
            <trkpt lon="101.389939" lat="14.201401">
                <ele>18.883057</ele>
                <time>2005-09-25T01:57:55Z</time>
            </trkpt>
            <trkpt lon="101.390617" lat="14.202079">
                <ele>18.883057</ele>
                <time>2005-09-25T01:58:07Z</time>
            </trkpt>
            <trkpt lon="101.390922" lat="14.202385">
                <ele>20.324951</ele>
                <time>2005-09-25T01:58:12Z</time>
            </trkpt>
            <trkpt lon="101.391598" lat="14.203069">
                <ele>18.883057</ele>
                <time>2005-09-25T01:58:23Z</time>
            </trkpt>
            <trkpt lon="101.392476" lat="14.203951">
                <ele>18.883057</ele>
                <time>2005-09-25T01:58:37Z</time>
            </trkpt>
            <trkpt lon="101.393610" lat="14.205083">
                <ele>20.324951</ele>
                <time>2005-09-25T01:58:55Z</time>
            </trkpt>
            <trkpt lon="101.394442" lat="14.205930">
                <ele>21.286377</ele>
                <time>2005-09-25T01:59:08Z</time>
            </trkpt>
            <trkpt lon="101.395039" lat="14.206525">
                <ele>21.766968</ele>
                <time>2005-09-25T01:59:18Z</time>
            </trkpt>
            <trkpt lon="101.395762" lat="14.207255">
                <ele>24.170288</ele>
                <time>2005-09-25T01:59:30Z</time>
            </trkpt>
            <trkpt lon="101.396475" lat="14.207984">
                <ele>26.573608</ele>
                <time>2005-09-25T01:59:44Z</time>
            </trkpt>
            <trkpt lon="101.397019" lat="14.208533">
                <ele>28.015503</ele>
                <time>2005-09-25T01:59:56Z</time>
            </trkpt>
            <trkpt lon="101.397473" lat="14.208982">
                <ele>28.496216</ele>
                <time>2005-09-25T02:00:04Z</time>
            </trkpt>
            <trkpt lon="101.397596" lat="14.209105">
                <ele>28.976929</ele>
                <time>2005-09-25T02:00:06Z</time>
            </trkpt>
            <trkpt lon="101.398148" lat="14.209667">
                <ele>26.092896</ele>
                <time>2005-09-25T02:00:15Z</time>
            </trkpt>
            <trkpt lon="101.399145" lat="14.210657">
                <ele>24.651001</ele>
                <time>2005-09-25T02:00:31Z</time>
            </trkpt>
            <trkpt lon="101.399736" lat="14.211252">
                <ele>25.612305</ele>
                <time>2005-09-25T02:00:41Z</time>
            </trkpt>
            <trkpt lon="101.400179" lat="14.211680">
                <ele>26.092896</ele>
                <time>2005-09-25T02:00:49Z</time>
            </trkpt>
            <trkpt lon="101.400803" lat="14.212314">
                <ele>25.612305</ele>
                <time>2005-09-25T02:01:00Z</time>
            </trkpt>
            <trkpt lon="101.401459" lat="14.212972">
                <ele>26.092896</ele>
                <time>2005-09-25T02:01:10Z</time>
            </trkpt>
            <trkpt lon="101.401745" lat="14.213263">
                <ele>22.247559</ele>
                <time>2005-09-25T02:01:14Z</time>
            </trkpt>
            <trkpt lon="101.401813" lat="14.213333">
                <ele>23.208984</ele>
                <time>2005-09-25T02:01:15Z</time>
            </trkpt>
            <trkpt lon="101.402010" lat="14.213533">
                <ele>27.054321</ele>
                <time>2005-09-25T02:01:18Z</time>
            </trkpt>
            <trkpt lon="101.402073" lat="14.213597">
                <ele>26.092896</ele>
                <time>2005-09-25T02:01:19Z</time>
            </trkpt>
            <trkpt lon="101.402520" lat="14.214049">
                <ele>26.092896</ele>
                <time>2005-09-25T02:01:27Z</time>
            </trkpt>
            <trkpt lon="101.403091" lat="14.214626">
                <ele>27.534912</ele>
                <time>2005-09-25T02:01:37Z</time>
            </trkpt>
            <trkpt lon="101.403636" lat="14.215170">
                <ele>27.534912</ele>
                <time>2005-09-25T02:01:46Z</time>
            </trkpt>
            <trkpt lon="101.404049" lat="14.215585">
                <ele>27.054321</ele>
                <time>2005-09-25T02:01:55Z</time>
            </trkpt>
            <trkpt lon="101.404222" lat="14.215774">
                <ele>27.534912</ele>
                <time>2005-09-25T02:02:01Z</time>
            </trkpt>
            <trkpt lon="101.404223" lat="14.215772">
                <ele>27.534912</ele>
                <time>2005-09-25T02:02:07Z</time>
            </trkpt>
            <trkpt lon="101.404269" lat="14.215827">
                <ele>28.976929</ele>
                <time>2005-09-25T02:03:15Z</time>
            </trkpt>
            <trkpt lon="101.404475" lat="14.216045">
                <ele>30.418823</ele>
                <time>2005-09-25T02:03:21Z</time>
            </trkpt>
            <trkpt lon="101.404844" lat="14.216511">
                <ele>30.418823</ele>
                <time>2005-09-25T02:03:30Z</time>
            </trkpt>
            <trkpt lon="101.405191" lat="14.217099">
                <ele>30.418823</ele>
                <time>2005-09-25T02:03:40Z</time>
            </trkpt>
            <trkpt lon="101.405489" lat="14.217834">
                <ele>31.380127</ele>
                <time>2005-09-25T02:03:51Z</time>
            </trkpt>
            <trkpt lon="101.405612" lat="14.218318">
                <ele>29.938110</ele>
                <time>2005-09-25T02:03:59Z</time>
            </trkpt>
            <trkpt lon="101.405633" lat="14.218390">
                <ele>29.938110</ele>
                <time>2005-09-25T02:04:01Z</time>
            </trkpt>
            <trkpt lon="101.405812" lat="14.218416">
                <ele>31.860718</ele>
                <time>2005-09-25T02:04:07Z</time>
            </trkpt>
            <trkpt lon="101.405945" lat="14.218375">
                <ele>31.860718</ele>
                <time>2005-09-25T02:04:10Z</time>
            </trkpt>
            <trkpt lon="101.406106" lat="14.218455">
                <ele>32.341553</ele>
                <time>2005-09-25T02:04:14Z</time>
            </trkpt>
            <trkpt lon="101.406220" lat="14.218586">
                <ele>32.822266</ele>
                <time>2005-09-25T02:04:17Z</time>
            </trkpt>
            <trkpt lon="101.406486" lat="14.218799">
                <ele>33.302856</ele>
                <time>2005-09-25T02:04:22Z</time>
            </trkpt>
            <trkpt lon="101.406885" lat="14.218930">
                <ele>35.225464</ele>
                <time>2005-09-25T02:04:28Z</time>
            </trkpt>
            <trkpt lon="101.407143" lat="14.218803">
                <ele>35.706055</ele>
                <time>2005-09-25T02:04:32Z</time>
            </trkpt>
            <trkpt lon="101.407545" lat="14.218448">
                <ele>35.706055</ele>
                <time>2005-09-25T02:04:39Z</time>
            </trkpt>
            <trkpt lon="101.407593" lat="14.218392">
                <ele>34.744873</ele>
                <time>2005-09-25T02:04:40Z</time>
            </trkpt>
            <trkpt lon="101.407663" lat="14.218262">
                <ele>33.783447</ele>
                <time>2005-09-25T02:04:42Z</time>
            </trkpt>
            <trkpt lon="101.407740" lat="14.217941">
                <ele>33.783447</ele>
                <time>2005-09-25T02:04:47Z</time>
            </trkpt>
            <trkpt lon="101.407716" lat="14.217715">
                <ele>33.302856</ele>
                <time>2005-09-25T02:04:51Z</time>
            </trkpt>
            <trkpt lon="101.407548" lat="14.217247">
                <ele>32.822266</ele>
                <time>2005-09-25T02:04:59Z</time>
            </trkpt>
            <trkpt lon="101.407368" lat="14.217029">
                <ele>32.341553</ele>
                <time>2005-09-25T02:05:03Z</time>
            </trkpt>
            <trkpt lon="101.407258" lat="14.216960">
                <ele>31.380127</ele>
                <time>2005-09-25T02:05:05Z</time>
            </trkpt>
            <trkpt lon="101.407104" lat="14.216887">
                <ele>31.380127</ele>
                <time>2005-09-25T02:05:09Z</time>
            </trkpt>
            <trkpt lon="101.407095" lat="14.216884">
                <ele>31.860718</ele>
                <time>2005-09-25T02:05:13Z</time>
            </trkpt>
            <trkpt lon="101.406960" lat="14.216840">
                <ele>30.899536</ele>
                <time>2005-09-25T02:05:36Z</time>
            </trkpt>
            <trkpt lon="101.406693" lat="14.216814">
                <ele>31.860718</ele>
                <time>2005-09-25T02:05:43Z</time>
            </trkpt>
            <trkpt lon="101.406690" lat="14.216901">
                <ele>31.380127</ele>
                <time>2005-09-25T02:05:50Z</time>
            </trkpt>
            <trkpt lon="101.406706" lat="14.216911">
                <ele>31.380127</ele>
                <time>2005-09-25T02:07:00Z</time>
            </trkpt>
            <trkpt lon="101.406721" lat="14.216962">
                <ele>31.860718</ele>
                <time>2005-09-25T02:07:10Z</time>
            </trkpt>
            <trkpt lon="101.406726" lat="14.216960">
                <ele>31.380127</ele>
                <time>2005-09-25T02:07:18Z</time>
            </trkpt>
            <trkpt lon="101.406743" lat="14.217001">
                <ele>31.860718</ele>
                <time>2005-09-25T02:07:36Z</time>
            </trkpt>
            <trkpt lon="101.407016" lat="14.217173">
                <ele>34.744873</ele>
                <time>2005-09-25T02:08:03Z</time>
            </trkpt>
        </trkseg>
    </trk>
</gpx>